M I D A S
Marine Information and Data Acquisition System
Tripno 748 of the Zeeleeuw from 2004-07-14 06:30:53 to 2004-07-14 14:45:08
Back to CruiseResearch ActivitiesStationsMapUnderway DataData graphs

EquipmentUnitsComment
TimeDGPSUTC
LatitudeDGPSDM.mWGS84
LongitudeDGPSDM.mWGS84
TemperatureSBE03/SBE38deg celciusITS90
ConductivitySBE21S/mITS90
SalinitySBE21 Practical Salinity Units
ChlorophylAChelsea fluorimeterg/lCalibrated in Aceton
Missing or incorrect values are displayed as -999
Sea surface data collected by the RV Zeeleeuw from 2004-07-14 06:30:53 to 2004-07-14 14:45:08
                                                                                    Next 1000 lines
Time Latitude Longitude Temperature Conductivity Salinity ChlorophylA
2004-07-14 06:31:00 51°13.606 2°56.058 20.926671 4.169895 30.571227 -0.680121
2004-07-14 06:31:05 51°13.608 2°56.051 20.926591 4.17 30.572613 -0.646411
2004-07-14 06:31:09 51°13.61 2°56.045 20.920201 4.169895 30.571751 -0.646411
2004-07-14 06:31:15 51°13.613 2°56.036 20.943762 4.169895 30.571751 -0.646411
2004-07-14 06:31:20 51°13.615 2°56.028 20.943762 4.169895 30.571751 -0.646411
2004-07-14 06:31:25 51°13.617 2°56.019 20.922318 4.169789 30.570889 -0.612702
2004-07-14 06:31:31 51°13.621 2°56.009 20.932741 4.169789 30.571413 -0.612702
2004-07-14 06:31:35 51°13.623 2°56.002 20.930625 4.169789 30.571413 -0.646411
2004-07-14 06:31:40 51°13.625 2°55.993 20.938651 4.169895 30.571751 -0.646411
2004-07-14 06:31:45 51°13.628 2°55.984 20.935257 4.169789 30.571413 -0.646411
2004-07-14 06:31:49 51°13.63 2°55.976 20.935257 4.169789 30.571413 -0.646411
2004-07-14 06:31:55 51°13.633 2°55.965 20.948633 4.169789 30.571413 -0.680121
2004-07-14 06:32:00 51°13.636 2°55.955 20.972105 4.169789 30.571413 -0.680121
2004-07-14 06:32:05 51°13.638 2°55.946 20.956258 4.169789 30.571938 -0.646411
2004-07-14 06:32:11 51°13.641 2°55.934 20.947396 4.169684 30.570551 -0.680121
2004-07-14 06:32:15 51°13.643 2°55.927 20.953743 4.169789 30.571413 -0.646411
2004-07-14 06:32:20 51°13.646 2°55.917 20.953743 4.169789 30.571413 -0.646411
2004-07-14 06:32:25 51°13.648 2°55.908 20.942844 4.169789 30.571938 -0.680121
2004-07-14 06:32:29 51°13.65 2°55.9 20.942764 4.169684 30.571076 -0.646411
2004-07-14 06:32:35 51°13.653 2°55.888 20.942365 4.169684 30.5716 -0.646411
2004-07-14 06:32:40 51°13.655 2°55.879 20.940248 4.169578 30.570214 -0.612702
2004-07-14 06:32:45 51°13.657 2°55.869 20.941207 4.169684 30.572125 -0.646411
2004-07-14 06:32:51 51°13.659 2°55.857 20.941207 4.169684 30.572125 -0.646411
2004-07-14 06:32:55 51°13.66 2°55.849 20.941007 4.169684 30.572125 -0.646411
2004-07-14 06:33:00 51°13.661 2°55.839 20.941446 4.169578 30.571263 -0.680121
2004-07-14 06:33:05 51°13.662 2°55.829 20.942285 4.169578 30.570738 -0.646411
2004-07-14 06:33:10 51°13.663 2°55.818 20.941606 4.169578 30.571263 -0.680121
2004-07-14 06:33:15 51°13.663 2°55.808 20.944601 4.169578 30.571787 -0.646411
2004-07-14 06:33:20 51°13.663 2°55.798 20.944601 4.169578 30.571787 -0.646411
2004-07-14 06:33:25 51°13.663 2°55.788 20.952905 4.169578 30.571263 -0.680121
2004-07-14 06:33:29 51°13.663 2°55.781 20.953903 4.169473 30.570401 -0.646411
2004-07-14 06:33:35 51°13.662 2°55.771 20.956498 4.169684 30.572125 -0.646411
2004-07-14 06:33:40 51°13.662 2°55.764 20.950829 4.169578 30.570738 -0.646411
2004-07-14 06:33:45 51°13.662 2°55.759 20.966158 4.169578 30.571263 -0.646411
2004-07-14 06:33:48 51°13.661 2°55.757 20.966158 4.169578 30.571263 -0.646411
2004-07-14 06:33:55 51°13.661 2°55.755 21.001873 4.169578 30.571787 -0.646411
2004-07-14 06:33:59 51°13.662 2°55.755 21.02102 4.169473 30.569876 -0.646411
2004-07-14 06:34:05 51°13.664 2°55.757 21.079545 4.169473 30.570401 -0.680121
2004-07-14 06:34:09 51°13.665 2°55.759 21.10154 4.169473 30.57145 -0.680121
2004-07-14 06:34:15 51°13.669 2°55.762 21.126873 4.169473 30.571974 -0.646411
2004-07-14 06:34:20 51°13.673 2°55.765 21.126873 4.169473 30.571974 -0.646411
2004-07-14 06:34:25 51°13.679 2°55.767 21.134917 4.169367 30.572161 -0.646411
2004-07-14 06:34:29 51°13.683 2°55.768 21.134081 4.169367 30.572685 -0.680121
2004-07-14 06:34:35 51°13.691 2°55.768 21.112694 4.169367 30.57321 -0.680121
2004-07-14 06:34:39 51°13.696 2°55.767 21.113929 4.169473 30.574597 -0.680121
2004-07-14 06:34:45 51°13.705 2°55.763 21.109467 4.169473 30.575121 -0.612702
2004-07-14 06:34:49 51°13.711 2°55.758 21.109467 4.169473 30.575121 -0.612702
2004-07-14 06:34:55 51°13.719 2°55.75 21.016074 4.169051 30.571673 -0.646411
2004-07-14 06:35:00 51°13.726 2°55.743 20.963244 4.169367 30.573735 -0.646411
2004-07-14 06:35:05 51°13.733 2°55.737 20.972105 4.169262 30.571299 -0.646411
2004-07-14 06:35:09 51°13.738 2°55.731 20.973981 4.169367 30.571636 -0.646411
2004-07-14 06:35:13 51°13.744 2°55.724 20.971267 4.169367 30.571636 -0.680121
2004-07-14 06:35:20 51°13.754 2°55.713 20.971267 4.169367 30.571636 -0.680121
2004-07-14 06:35:25 51°13.761 2°55.704 20.973941 4.169367 30.571112 -0.646411
2004-07-14 06:35:29 51°13.767 2°55.697 20.982641 4.169367 30.570588 -0.680121
2004-07-14 06:35:35 51°13.776 2°55.686 20.954222 4.169367 30.571112 -0.646411
2004-07-14 06:35:39 51°13.783 2°55.679 20.951388 4.169367 30.570588 -0.646411
2004-07-14 06:35:45 51°13.793 2°55.669 20.934219 4.169367 30.571112 -0.680121
2004-07-14 06:35:50 51°13.801 2°55.66 20.934219 4.169367 30.571112 -0.680121
2004-07-14 06:35:55 51°13.81 2°55.651 20.913171 4.169262 30.569725 -0.646411
2004-07-14 06:36:00 51°13.818 2°55.642 20.934219 4.169367 30.570588 -0.612702
2004-07-14 06:36:05 51°13.827 2°55.634 20.948394 4.169367 30.570588 -0.646411
2004-07-14 06:36:09 51°13.834 2°55.627 20.952386 4.169367 30.571636 -0.646411
2004-07-14 06:36:15 51°13.845 2°55.617 20.954542 4.169262 30.571299 -0.646411
2004-07-14 06:36:19 51°13.853 2°55.611 20.954542 4.169262 30.571299 -0.646411
2004-07-14 06:36:25 51°13.864 2°55.601 20.954901 4.169262 30.572348 -0.646411
2004-07-14 06:36:29 51°13.872 2°55.596 20.934898 4.169157 30.571486 -0.646411
2004-07-14 06:36:33 51°13.879 2°55.59 20.947954 4.169157 30.57201 -0.680121
2004-07-14 06:36:40 51°13.893 2°55.58 20.950709 4.169262 30.572872 -0.680121
2004-07-14 06:36:45 51°13.903 2°55.573 20.967355 4.169262 30.572872 -0.646411
2004-07-14 06:36:49 51°13.911 2°55.568 20.967355 4.169262 30.572872 -0.646411
2004-07-14 06:36:55 51°13.924 2°55.56 20.965799 4.169157 30.572535 -0.680121
2004-07-14 06:37:00 51°13.934 2°55.553 20.967355 4.169157 30.57201 -0.680121
2004-07-14 06:37:04 51°13.941 2°55.547 20.980406 4.169051 30.572197 -0.646411
2004-07-14 06:37:10 51°13.953 2°55.538 20.966597 4.169157 30.573059 -0.612702
2004-07-14 06:37:15 51°13.963 2°55.531 20.969152 4.169157 30.573059 -0.680121
2004-07-14 06:37:20 51°13.973 2°55.524 20.969152 4.169157 30.573059 -0.680121
2004-07-14 06:37:25 51°13.983 2°55.517 20.977453 4.169051 30.572197 -0.612702
2004-07-14 06:37:29 51°13.991 2°55.511 20.985634 4.168946 30.571335 -0.646411
2004-07-14 06:37:35 51°14.004 2°55.502 20.976535 4.169157 30.573584 -0.646411
2004-07-14 06:37:39 51°14.012 2°55.496 20.973941 4.169051 30.572722 -0.646411
2004-07-14 06:37:44 51°14.022 2°55.489 20.977134 4.168946 30.571335 -0.646411
2004-07-14 06:37:49 51°14.033 2°55.481 20.977134 4.168946 30.571335 -0.646411
2004-07-14 06:37:55 51°14.046 2°55.472 20.973302 4.169051 30.572722 -0.646411
2004-07-14 06:38:00 51°14.057 2°55.465 20.980646 4.169051 30.571673 -0.680121
2004-07-14 06:38:05 51°14.068 2°55.457 20.981803 4.168946 30.571335 -0.680121
2004-07-14 06:38:09 51°14.078 2°55.45 20.985075 4.168946 30.571335 -0.680121
2004-07-14 06:38:15 51°14.093 2°55.441 20.976735 4.16884 30.570998 -0.646411
2004-07-14 06:38:19 51°14.103 2°55.434 20.976735 4.16884 30.570998 -0.646411
2004-07-14 06:38:24 51°14.115 2°55.424 20.956578 4.168946 30.57186 -0.646411
2004-07-14 06:38:30 51°14.131 2°55.413 20.967316 4.169051 30.572722 -0.680121
2004-07-14 06:38:35 51°14.143 2°55.403 20.98284 4.168946 30.572384 -0.680121
2004-07-14 06:38:40 51°14.156 2°55.392 21.015077 4.168946 30.572909 -0.680121
2004-07-14 06:38:45 51°14.169 2°55.38 20.973223 4.168946 30.572909 -0.646411
2004-07-14 06:38:49 51°14.178 2°55.37 20.973223 4.168946 30.572909 -0.646411
2004-07-14 06:38:55 51°14.193 2°55.354 20.989744 4.16884 30.572047 -0.646411
2004-07-14 06:39:00 51°14.205 2°55.341 21.031429 4.16884 30.572047 -0.680121
2004-07-14 06:39:05 51°14.217 2°55.326 21.009453 4.16884 30.572571 -0.646411
2004-07-14 06:39:10 51°14.228 2°55.31 20.962526 4.168946 30.572909 -0.680121
2004-07-14 06:39:15 51°14.239 2°55.294 21.009652 4.16884 30.572047 -0.646411
2004-07-14 06:39:20 51°14.25 2°55.276 21.009652 4.16884 30.572047 -0.646411
2004-07-14 06:39:24 51°14.259 2°55.262 21.024011 4.16884 30.572571 -0.646411
2004-07-14 06:39:29 51°14.27 2°55.244 20.953703 4.168946 30.572909 -0.646411
2004-07-14 06:39:35 51°14.283 2°55.222 20.985155 4.168735 30.571184 -0.646411
2004-07-14 06:39:40 51°14.294 2°55.203 20.988188 4.168735 30.571184 -0.646411
2004-07-14 06:39:45 51°14.304 2°55.183 20.829717 4.17116 30.582095 -0.376736
2004-07-14 06:39:49 51°14.313 2°55.167 20.829717 4.17116 30.582095 -0.376736
2004-07-14 06:39:55 51°14.325 2°55.143 19.578218 4.020812 29.489046 0.499708
2004-07-14 06:40:00 51°14.336 2°55.122 18.629453 3.974216 29.156674 2.522272
2004-07-14 06:40:05 51°14.348 2°55.102 18.264956 3.674555 26.189196 4.443708
2004-07-14 06:40:09 51°14.357 2°55.086 17.944059 3.99338 28.15008 3.129042
2004-07-14 06:40:15 51°14.37 2°55.06 17.714639 4.040086 28.659861 1.814375
2004-07-14 06:40:20 51°14.382 2°55.039 17.714639 4.040086 28.659861 1.814375
2004-07-14 06:40:25 51°14.393 2°55.017 17.636238 4.242222 30.582086 1.477281
2004-07-14 06:40:29 51°14.402 2°54.999 17.595957 4.254253 31.212668 1.409862
2004-07-14 06:40:35 51°14.416 2°54.972 17.515157 4.194152 31.04625 1.409862
2004-07-14 06:40:39 51°14.425 2°54.954 17.530209 4.239713 31.752454 1.409862
2004-07-14 06:40:45 51°14.439 2°54.926 17.476357 4.224214 31.797822 1.443571
2004-07-14 06:40:48 51°14.446 2°54.912 17.476357 4.224214 31.797822 1.443571
2004-07-14 06:40:55 51°14.461 2°54.88 17.426747 4.220947 31.885982 1.443571
2004-07-14 06:41:00 51°14.472 2°54.855 17.37626 3.77912 28.255117 1.443571
2004-07-14 06:41:04 51°14.481 2°54.836 17.411924 4.214939 31.972205 1.477281
2004-07-14 06:41:09 51°14.492 2°54.813 17.389998 4.204711 31.937501 1.477281
2004-07-14 06:41:13 51°14.501 2°54.794 17.389914 4.200599 31.934054 1.51099
2004-07-14 06:41:20 51°14.516 2°54.76 17.389914 4.200599 31.934054 1.51099
2004-07-14 06:41:24 51°14.525 2°54.741 17.374411 4.188895 31.867859 1.5447
2004-07-14 06:41:29 51°14.536 2°54.717 17.356719 4.212305 32.093748 1.443571
2004-07-14 06:41:33 51°14.545 2°54.697 17.340872 4.214731 32.121871 1.51099
2004-07-14 06:41:39 51°14.558 2°54.668 17.313162 4.223378 32.207018 1.5447
2004-07-14 06:41:44 51°14.568 2°54.643 17.323297 4.241938 32.376142 1.443571
2004-07-14 06:41:49 51°14.579 2°54.618 17.323297 4.241938 32.376142 1.443571
2004-07-14 06:41:53 51°14.587 2°54.598 17.322792 4.256807 32.518105 1.443571
2004-07-14 06:41:59 51°14.599 2°54.567 17.306559 4.250796 32.482011 1.308734
2004-07-14 06:42:04 51°14.609 2°54.542 17.302773 4.271571 32.67349 1.275024
2004-07-14 06:42:09 51°14.619 2°54.517 17.30475 4.251535 32.512881 1.207606
2004-07-14 06:42:14 51°14.63 2°54.492 17.280392 4.271888 32.694441 1.173896
2004-07-14 06:42:19 51°14.64 2°54.467 17.280392 4.271888 32.694441 1.173896
2004-07-14 06:42:24 51°14.651 2°54.442 17.300881 4.269146 32.671588 1.106477
2004-07-14 06:42:29 51°14.661 2°54.417 17.273155 4.295405 32.903308 1.072768
2004-07-14 06:42:34 51°14.672 2°54.392 17.271682 4.307534 33.0125 1.005349
2004-07-14 06:42:39 51°14.682 2°54.366 17.277363 4.311858 33.059074 0.97164
2004-07-14 06:42:44 51°14.692 2°54.341 17.270209 4.296566 32.93045 0.870512
2004-07-14 06:42:49 51°14.702 2°54.315 17.270209 4.296566 32.93045 0.870512
2004-07-14 06:42:53 51°14.71 2°54.295 17.248786 4.304265 33.001753 0.836802
2004-07-14 06:42:59 51°14.722 2°54.264 17.264444 4.319662 33.140303 0.769383
2004-07-14 06:43:04 51°14.732 2°54.239 17.26175 4.305425 33.020032 0.701965
2004-07-14 06:43:10 51°14.743 2°54.208 17.267179 4.312069 33.083554 0.634546
2004-07-14 06:43:14 51°14.75 2°54.186 17.26739 4.317658 33.135676 0.634546
2004-07-14 06:43:17 51°14.755 2°54.171 17.26739 4.317658 33.135676 0.634546
2004-07-14 06:43:24 51°14.767 2°54.133 17.294529 4.313651 33.106082 0.567127
2004-07-14 06:43:29 51°14.776 2°54.107 17.285694 4.323775 33.191749 0.499708
2004-07-14 06:43:35 51°14.786 2°54.075 17.30311 4.306691 33.046383 0.499708
2004-07-14 06:43:40 51°14.794 2°54.048 17.305507 4.32831 33.233667 0.432289
2004-07-14 06:43:44 51°14.8 2°54.027 17.305802 4.335482 33.292828 0.432289
2004-07-14 06:43:49 51°14.808 2°54 17.305802 4.335482 33.292828 0.432289
2004-07-14 06:43:53 51°14.815 2°53.979 17.311816 4.327677 33.221638 0.39858
2004-07-14 06:44:00 51°14.827 2°53.942 17.306096 4.334849 33.274779 0.39858
2004-07-14 06:44:04 51°14.834 2°53.92 17.316148 4.330314 33.233466 0.364871
2004-07-14 06:44:09 51°14.842 2°53.894 17.305045 4.34645 33.365326 0.39858
2004-07-14 06:44:16 51°14.853 2°53.856 17.301722 4.332634 33.241976 0.364871
2004-07-14 06:44:20 51°14.86 2°53.835 17.301722 4.332634 33.241976 0.364871
2004-07-14 06:44:23 51°14.865 2°53.819 17.299745 4.351512 33.402754 0.39858
2004-07-14 06:44:29 51°14.875 2°53.787 17.318251 4.342547 33.323418 0.39858
2004-07-14 06:44:35 51°14.885 2°53.755 17.304456 4.350985 33.394613 0.39858
2004-07-14 06:44:39 51°14.891 2°53.734 17.300965 4.355836 33.438666 0.432289
2004-07-14 06:44:44 51°14.9 2°53.707 17.292047 4.357102 33.451944 0.432289
2004-07-14 06:44:50 51°14.91 2°53.675 17.292047 4.357102 33.451944 0.432289
2004-07-14 06:44:56 51°14.919 2°53.642 17.278541 4.359739 33.478207 0.465999
2004-07-14 06:45:01 51°14.927 2°53.615 17.273407 4.35109 33.400941 0.499708
2004-07-14 06:45:04 51°14.932 2°53.599 17.273029 4.351723 33.406373 0.465999
2004-07-14 06:45:10 51°14.943 2°53.568 17.273029 4.358684 33.469754 0.567127
2004-07-14 06:45:14 51°14.949 2°53.546 17.267348 4.348348 33.388247 0.567127
2004-07-14 06:45:20 51°14.96 2°53.514 17.267348 4.348348 33.388247 0.567127
2004-07-14 06:45:24 51°14.967 2°53.493 17.27063 4.350247 33.412386 0.600836
2004-07-14 06:45:30 51°14.977 2°53.461 17.255058 4.358157 33.482143 0.634546
2004-07-14 06:45:36 51°14.987 2°53.429 17.259225 4.349192 33.41117 0.668255
2004-07-14 06:45:40 51°14.993 2°53.406 17.255858 4.350142 33.422341 0.701965
2004-07-14 06:45:45 51°15.001 2°53.379 17.250175 4.318924 33.156708 0.836802
2004-07-14 06:45:50 51°15.009 2°53.352 17.250175 4.318924 33.156708 0.836802
2004-07-14 06:45:54 51°15.015 2°53.33 17.246008 4.351935 33.440765 0.97164
2004-07-14 06:46:01 51°15.025 2°53.291 17.244745 4.319768 33.169938 1.005349
2004-07-14 06:46:05 51°15.032 2°53.27 17.25228 4.345501 33.39273 1.072768
2004-07-14 06:46:08 51°15.036 2°53.254 17.240324 4.346134 33.402392 1.072768
2004-07-14 06:46:16 51°15.049 2°53.21 17.236998 4.331053 33.273428 1.106477
2004-07-14 06:46:21 51°15.056 2°53.182 17.236998 4.331053 33.273428 1.106477
2004-07-14 06:46:24 51°15.061 2°53.166 17.230472 4.333795 33.301192 1.106477
2004-07-14 06:46:29 51°15.069 2°53.138 17.233167 4.344236 33.392716 1.072768
2004-07-14 06:46:34 51°15.076 2°53.111 17.23624 4.321034 33.193992 1.140187
2004-07-14 06:46:40 51°15.085 2°53.078 17.234725 4.340967 33.369443 1.106477
2004-07-14 06:46:45 51°15.092 2°53.05 17.227103 4.324936 33.232907 1.106477
2004-07-14 06:46:50 51°15.1 2°53.023 17.227103 4.324936 33.232907 1.106477
2004-07-14 06:46:56 51°15.108 2°52.99 17.220534 4.305742 33.069291 1.106477
2004-07-14 06:47:00 51°15.114 2°52.968 17.212869 4.330526 33.286341 1.140187
2004-07-14 06:47:04 51°15.12 2°52.945 17.214891 4.32019 33.196946 1.140187
2004-07-14 06:47:09 51°15.127 2°52.917 17.216533 4.324092 33.232268 1.106477
2004-07-14 06:47:14 51°15.134 2°52.89 17.2095 4.309328 33.107851 1.106477
2004-07-14 06:47:21 51°15.144 2°52.851 17.2095 4.309328 33.107851 1.106477
2004-07-14 06:47:24 51°15.149 2°52.834 17.211943 4.333162 33.317432 1.072768
2004-07-14 06:47:29 51°15.156 2°52.807 17.203434 4.334006 33.327698 1.072768
2004-07-14 06:47:34 51°15.163 2°52.779 17.200696 4.306586 33.09388 1.072768
2004-07-14 06:47:40 51°15.171 2°52.745 17.204824 4.340229 33.386635 1.072768
2004-07-14 06:47:45 51°15.177 2°52.716 17.202929 4.350142 33.47434 1.072768
2004-07-14 06:47:50 51°15.183 2°52.687 17.202929 4.350142 33.47434 1.072768
2004-07-14 06:47:54 51°15.188 2°52.665 17.206593 4.35067 33.479483 1.072768
2004-07-14 06:48:00 51°15.196 2°52.63 17.198885 4.346135 33.444698 1.039059
2004-07-14 06:48:05 51°15.202 2°52.601 17.203181 4.331159 33.317682 1.039059
2004-07-14 06:48:09 51°15.207 2°52.578 17.201454 4.350986 33.487659 1.072768
2004-07-14 06:48:14 51°15.213 2°52.55 17.198969 4.356049 33.532447 1.039059
2004-07-14 06:48:20 51°15.22 2°52.515 17.198969 4.356049 33.532447 1.039059
2004-07-14 06:48:24 51°15.225 2°52.493 17.195472 4.351303 33.492807 1.039059
2004-07-14 06:48:29 51°15.23 2°52.463 17.193829 4.351725 33.495832 1.005349
2004-07-14 06:48:36 51°15.238 2°52.422 17.1972 4.354783 33.523979 1.005349
2004-07-14 06:48:37 51°15.239 2°52.417 17.198295 4.350143 33.482821 0.97164
2004-07-14 06:48:44 51°15.245 2°52.376 17.196357 4.350354 33.488274 0.904221
2004-07-14 06:48:49 51°15.249 2°52.346 17.196357 4.350354 33.488274 0.904221
2004-07-14 06:48:54 51°15.253 2°52.316 17.190206 4.354783 33.528227 0.97164
2004-07-14 06:49:00 51°15.257 2°52.28 17.193324 4.354361 33.522774 0.97164
2004-07-14 06:49:04 51°15.259 2°52.256 17.19067 4.357842 33.55274 0.93793
2004-07-14 06:49:09 51°15.262 2°52.226 17.19008 4.360057 33.572419 0.870512
2004-07-14 06:49:13 51°15.264 2°52.202 17.189911 4.352041 33.506439 0.904221
2004-07-14 06:49:20 51°15.267 2°52.16 17.189911 4.352041 33.506439 0.904221
2004-07-14 06:49:23 51°15.268 2°52.141 17.186793 4.109396 31.428376 0.870512
2004-07-14 06:49:28 51°15.269 2°52.111 17.189111 4.36765 33.640866 0.870512
2004-07-14 06:49:36 51°15.269 2°52.062 17.192945 4.368494 33.649353 0.836802
2004-07-14 06:49:40 51°15.268 2°52.038 17.183633 4.369127 33.654195 0.836802
2004-07-14 06:49:44 51°15.267 2°52.013 17.182917 4.369338 33.65845 0.904221
2004-07-14 06:49:49 51°15.266 2°51.983 17.182917 4.369338 33.65845 0.904221
2004-07-14 06:49:54 51°15.265 2°51.952 17.182159 4.370287 33.666629 0.836802
2004-07-14 06:50:00 51°15.262 2°51.915 17.185614 4.370287 33.666629 0.870512
2004-07-14 06:50:03 51°15.261 2°51.897 17.182243 4.370182 33.665111 0.836802
2004-07-14 06:50:09 51°15.259 2°51.861 17.178788 4.370076 33.668469 0.769383
2004-07-14 06:50:13 51°15.257 2°51.837 17.184982 4.370498 33.673934 0.769383
2004-07-14 06:50:20 51°15.254 2°51.794 17.184982 4.370498 33.673934 0.769383
2004-07-14 06:50:24 51°15.251 2°51.77 17.179757 4.370709 33.675752 0.769383
2004-07-14 06:50:28 51°15.249 2°51.746 17.178788 4.371131 33.678778 0.701965
2004-07-14 06:50:36 51°15.245 2°51.697 17.181358 4.37208 33.689399 0.769383
2004-07-14 06:50:39 51°15.243 2°51.679 17.188816 4.372607 33.694554 0.668255
2004-07-14 06:50:43 51°15.241 2°51.654 17.190543 4.373451 33.701827 0.634546
2004-07-14 06:50:50 51°15.237 2°51.612 17.190543 4.373451 33.701827 0.634546
2004-07-14 06:50:54 51°15.235 2°51.587 17.19345 4.375033 33.716685 0.735674
2004-07-14 06:51:00 51°15.232 2°51.551 17.195093 4.376721 33.731232 0.600836
2004-07-14 06:51:03 51°15.23 2°51.533 17.200233 4.379041 33.749402 0.668255
2004-07-14 06:51:09 51°15.227 2°51.496 17.200991 4.380834 33.761803 0.668255
2004-07-14 06:51:15 51°15.224 2°51.459 17.205835 4.382943 33.778153 0.701965
2004-07-14 06:51:20 51°15.222 2°51.429 17.205835 4.382943 33.778153 0.701965
2004-07-14 06:51:24 51°15.22 2°51.405 17.204656 4.385264 33.79571 0.668255
2004-07-14 06:51:29 51°15.217 2°51.374 17.207941 4.38674 33.805992 0.668255
2004-07-14 06:51:35 51°15.214 2°51.338 17.202844 4.388639 33.821135 0.668255
2004-07-14 06:51:39 51°15.212 2°51.313 17.203813 4.389904 33.830209 0.668255
2004-07-14 06:51:48 51°15.207 2°51.259 17.207562 4.390432 33.832305 0.668255
2004-07-14 06:51:55 51°15.203 2°51.216 17.202929 4.391803 33.841675 0.600836
2004-07-14 06:51:59 51°15.2 2°51.192 17.198885 4.39233 33.844996 0.600836
2004-07-14 06:52:04 51°15.197 2°51.162 17.196231 4.388006 33.808333 0.600836
2004-07-14 06:52:09 51°15.194 2°51.131 17.197916 4.393807 33.857726 0.600836
2004-07-14 06:52:14 51°15.191 2°51.101 17.201581 4.395072 33.869864 0.567127
2004-07-14 06:52:19 51°15.187 2°51.07 17.201581 4.395072 33.869864 0.567127
2004-07-14 06:52:24 51°15.185 2°51.04 17.196736 4.3956 33.875637 0.600836
2004-07-14 06:52:29 51°15.181 2°51.01 17.196736 4.396232 33.882934 0.533418
2004-07-14 06:52:35 51°15.177 2°50.974 17.196189 4.396232 33.884774 0.499708
2004-07-14 06:52:39 51°15.175 2°50.949 17.195599 4.396654 33.888413 0.499708
2004-07-14 06:52:43 51°15.173 2°50.925 17.194756 4.396971 33.891141 0.533418
2004-07-14 06:52:49 51°15.169 2°50.889 17.194756 4.396971 33.891141 0.533418
2004-07-14 06:52:54 51°15.167 2°50.859 17.193535 4.397604 33.897212 0.533418
2004-07-14 06:52:59 51°15.163 2°50.828 17.196526 4.398236 33.90267 0.499708
2004-07-14 06:53:04 51°15.16 2°50.798 17.194124 4.398553 33.906013 0.465999
2004-07-14 06:53:10 51°15.156 2°50.762 17.199264 4.39908 33.910561 0.499708
2004-07-14 06:53:14 51°15.154 2°50.738 17.198211 4.399608 33.916338 0.499708
2004-07-14 06:53:20 51°15.15 2°50.702 17.198211 4.399608 33.916338 0.499708
2004-07-14 06:53:25 51°15.147 2°50.671 17.198379 4.400768 33.926345 0.499708
2004-07-14 06:53:30 51°15.144 2°50.641 17.198421 4.40119 33.929984 0.465999
2004-07-14 06:53:36 51°15.139 2°50.605 17.196947 4.401822 33.935443 0.499708
2004-07-14 06:53:40 51°15.136 2°50.581 17.202044 4.402455 33.940287 0.499708
2004-07-14 06:53:44 51°15.133 2°50.557 17.200022 4.402772 33.942402 0.499708
2004-07-14 06:53:50 51°15.128 2°50.522 17.200022 4.402772 33.942402 0.499708
2004-07-14 06:53:54 51°15.124 2°50.498 17.197747 4.402983 33.944222 0.465999
2004-07-14 06:54:01 51°15.117 2°50.457 17.197326 4.40351 33.948771 0.499708
2004-07-14 06:54:06 51°15.112 2°50.427 17.196778 4.404037 33.95332 0.499708
2004-07-14 06:54:10 51°15.108 2°50.403 17.196736 4.403932 33.951796 0.465999
2004-07-14 06:54:14 51°15.104 2°50.379 17.192818 4.404143 33.953615 0.465999
2004-07-14 06:54:19 51°15.099 2°50.35 17.192818 4.404143 33.953615 0.465999
2004-07-14 06:54:22 51°15.097 2°50.332 17.192903 4.404459 33.956345 0.499708
2004-07-14 06:54:33 51°15.086 2°50.267 17.19741 4.404776 33.960919 0.465999
2004-07-14 06:54:40 51°15.079 2°50.225 17.193787 4.40467 33.960009 0.465999
2004-07-14 06:54:44 51°15.075 2°50.201 17.193787 4.40467 33.960009 0.465999
2004-07-14 06:54:48 51°15.072 2°50.177 17.194714 4.40467 33.961854 0.465999
2004-07-14 06:54:53 51°15.066 2°50.148 17.194166 4.404459 33.96065 0.465999
2004-07-14 06:54:58 51°15.062 2°50.118 17.192144 4.404881 33.963674 0.499708
2004-07-14 06:55:04 51°15.056 2°50.082 17.191554 4.40467 33.961239 0.432289
2004-07-14 06:55:09 51°15.052 2°50.052 17.190922 4.404987 33.965199 0.432289
2004-07-14 06:55:13 51°15.048 2°50.028 17.190922 4.404987 33.965199 0.432289
2004-07-14 06:55:17 51°15.045 2°50.004 17.192987 4.404987 33.965199 0.39858
2004-07-14 06:55:24 51°15.04 2°49.961 17.192018 4.404776 33.963379 0.465999
2004-07-14 06:55:29 51°15.037 2°49.931 17.190206 4.405409 33.968839 0.432289
2004-07-14 06:55:34 51°15.033 2°49.901 17.190206 4.405092 33.966725 0.432289
2004-07-14 06:55:40 51°15.03 2°49.865 17.191849 4.40562 33.970659 0.432289
2004-07-14 06:55:44 51°15.026 2°49.84 17.191849 4.40562 33.970659 0.432289
2004-07-14 06:55:50 51°15.023 2°49.804 17.191049 4.40562 33.97189 0.432289
2004-07-14 06:55:53 51°15.02 2°49.786 17.191512 4.40583 33.972479 0.465999
2004-07-14 06:56:00 51°15.016 2°49.743 17.191049 4.40583 33.974325 0.39858
2004-07-14 06:56:04 51°15.013 2°49.719 17.190164 4.406147 33.978286 0.432289
2004-07-14 06:56:09 51°15.01 2°49.689 17.188352 4.406147 33.977671 0.432289
2004-07-14 06:56:14 51°15.006 2°49.658 17.188352 4.406147 33.977671 0.432289
2004-07-14 06:56:20 51°15.002 2°49.622 17.193492 4.406358 33.979491 0.432289
2004-07-14 06:56:24 51°15 2°49.598 17.191175 4.406463 33.97917 0.39858
2004-07-14 06:56:29 51°14.996 2°49.568 17.188142 4.406674 33.980991 0.39858
2004-07-14 06:56:33 51°14.993 2°49.543 17.186204 4.406885 33.983426 0.432289
2004-07-14 06:56:40 51°14.989 2°49.501 17.189237 4.407202 33.986772 0.39858
2004-07-14 06:56:44 51°14.986 2°49.477 17.189237 4.407202 33.986772 0.39858
2004-07-14 06:56:50 51°14.982 2°49.441 17.191428 4.407096 33.985862 0.39858
2004-07-14 06:56:53 51°14.98 2°49.423 17.188184 4.407202 33.987388 0.39858
2004-07-14 06:57:00 51°14.976 2°49.38 17.184687 4.407624 33.991644 0.432289
2004-07-14 06:57:04 51°14.973 2°49.356 17.186793 4.407624 33.992876 0.39858
2004-07-14 06:57:09 51°14.97 2°49.326 17.184982 4.407624 33.991644 0.39858
2004-07-14 06:57:14 51°14.966 2°49.296 17.184982 4.407624 33.991644 0.39858
2004-07-14 06:57:20 51°14.963 2°49.26 17.187847 4.407518 33.990734 0.364871
2004-07-14 06:57:24 51°14.96 2°49.236 17.183802 4.407729 33.99317 0.39858
2004-07-14 06:57:28 51°14.958 2°49.212 17.182074 4.407729 33.993786 0.39858
2004-07-14 06:57:36 51°14.952 2°49.163 17.183507 4.407729 33.995017 0.39858
2004-07-14 06:57:42 51°14.949 2°49.128 17.18397 4.407413 33.992902 0.364871
2004-07-14 06:57:48 51°14.944 2°49.092 17.184139 4.407624 33.995339 0.364871
2004-07-14 06:57:49 51°14.944 2°49.086 17.183296 4.407307 33.994455 0.39858
2004-07-14 06:57:56 51°14.94 2°49.043 17.179083 4.407307 33.994455 0.39858
2004-07-14 06:58:01 51°14.936 2°49.013 17.179083 4.407307 33.994455 0.39858
2004-07-14 06:58:08 51°14.931 2°48.971 17.179462 4.40678 33.989288 0.364871
2004-07-14 06:58:12 51°14.929 2°48.947 17.181948 4.406991 33.991109 0.39858
2004-07-14 06:58:17 51°14.926 2°48.918 17.179251 4.40678 33.989288 0.364871
2004-07-14 06:58:22 51°14.922 2°48.888 17.177313 4.406885 33.99143 0.39858
2004-07-14 06:58:28 51°14.918 2°48.852 17.180052 4.40678 33.991136 0.39858
2004-07-14 06:58:32 51°14.916 2°48.828 17.180052 4.40678 33.991136 0.39858
2004-07-14 06:58:38 51°14.912 2°48.792 17.176344 4.406885 33.992662 0.364871
2004-07-14 06:58:42 51°14.909 2°48.768 17.176723 4.406358 33.98811 0.364871
2004-07-14 06:58:48 51°14.905 2°48.733 17.176344 4.406253 33.988431 0.364871
2004-07-14 06:58:52 51°14.903 2°48.709 17.174152 4.406147 33.988137 0.364871
2004-07-14 06:58:57 51°14.9 2°48.679 17.173815 4.405831 33.985406 0.364871
2004-07-14 06:59:02 51°14.896 2°48.649 17.173815 4.405831 33.985406 0.364871
2004-07-14 06:59:06 51°14.894 2°48.625 17.170907 4.405936 33.986932 0.364871
2004-07-14 06:59:12 51°14.89 2°48.59 17.173942 4.405725 33.984495 0.39858
2004-07-14 06:59:17 51°14.887 2°48.56 17.173647 4.405725 33.986343 0.364871
2004-07-14 06:59:22 51°14.883 2°48.53 17.177818 4.405831 33.988485 0.364871
2004-07-14 06:59:26 51°14.881 2°48.506 17.173267 4.405514 33.986985 0.364871
2004-07-14 06:59:30 51°14.879 2°48.482 17.173267 4.405514 33.986985 0.364871
2004-07-14 06:59:38 51°14.874 2°48.435 17.17588 4.405514 33.986985 0.364871
2004-07-14 06:59:42 51°14.87 2°48.411 17.17411 4.40562 33.987896 0.364871
2004-07-14 06:59:48 51°14.867 2°48.375 17.173141 4.405514 33.985753 0.364871
2004-07-14 06:59:52 51°14.864 2°48.351 17.173436 4.406042 33.990306 0.364871
2004-07-14 06:59:57 51°14.861 2°48.321 17.170992 4.406042 33.990922 0.364871
2004-07-14 07:00:02 51°14.858 2°48.292 17.170992 4.406042 33.990922 0.364871
2004-07-14 07:00:08 51°14.854 2°48.256 17.172762 4.406253 33.992743 0.364871
2004-07-14 07:00:13 51°14.851 2°48.226 17.172593 4.406253 33.992743 0.364871
2004-07-14 07:00:17 51°14.849 2°48.202 17.175206 4.406253 33.992743 0.331161
2004-07-14 07:00:22 51°14.845 2°48.173 17.172509 4.406569 33.996706 0.331161
2004-07-14 07:00:28 51°14.842 2°48.137 17.173099 4.406991 34.000348 0.331161
2004-07-14 07:00:33 51°14.839 2°48.107 17.173099 4.406991 34.000348 0.331161
2004-07-14 07:00:36 51°14.837 2°48.089 17.171792 4.406991 34.000348 0.331161
2004-07-14 07:00:41 51°14.834 2°48.059 17.169306 4.406991 34.000348 0.331161
2004-07-14 07:00:46 51°14.83 2°48.03 17.170107 4.407413 34.003374 0.331161
2004-07-14 07:00:52 51°14.826 2°47.994 17.170612 4.407624 34.004579 0.331161
2004-07-14 07:00:57 51°14.823 2°47.964 17.168758 4.407518 34.004901 0.331161
2004-07-14 07:01:02 51°14.82 2°47.935 17.168758 4.407518 34.004901 0.331161
2004-07-14 07:01:08 51°14.816 2°47.899 17.167915 4.40794 34.00916 0.331161
2004-07-14 07:01:13 51°14.813 2°47.869 17.169685 4.408257 34.012508 0.297452
2004-07-14 07:01:17 51°14.811 2°47.845 17.168969 4.408362 34.014035 0.331161
2004-07-14 07:01:22 51°14.808 2°47.815 17.167367 4.408679 34.016767 0.331161
2004-07-14 07:01:28 51°14.803 2°47.78 17.167367 4.408995 34.019499 0.331161
2004-07-14 07:01:33 51°14.801 2°47.75 17.167367 4.408995 34.019499 0.331161
2004-07-14 07:01:36 51°14.798 2°47.733 17.166229 4.408679 34.018617 0.297452
2004-07-14 07:01:42 51°14.795 2°47.697 17.170022 4.408784 34.018911 0.297452
2004-07-14 07:01:46 51°14.792 2°47.673 17.172087 4.409417 34.024375 0.297452
2004-07-14 07:01:52 51°14.789 2°47.638 17.167072 4.409417 34.024375 0.297452
2004-07-14 07:01:57 51°14.785 2°47.608 17.166946 4.409311 34.023464 0.297452
2004-07-14 07:02:01 51°14.784 2°47.585 17.166946 4.409311 34.023464 0.297452
2004-07-14 07:02:08 51°14.779 2°47.543 17.164712 4.409733 34.026491 0.297452
2004-07-14 07:02:13 51°14.776 2°47.514 17.163532 4.409733 34.026491 0.297452
2004-07-14 07:02:16 51°14.774 2°47.496 17.161129 4.410472 34.032866 0.297452
2004-07-14 07:02:22 51°14.771 2°47.46 17.15898 4.410261 34.032278 0.297452
2004-07-14 07:02:28 51°14.767 2°47.424 17.161509 4.410788 34.037449 0.297452
2004-07-14 07:02:32 51°14.765 2°47.4 17.161509 4.410788 34.037449 0.297452
2004-07-14 07:02:36 51°14.762 2°47.377 17.160244 4.410366 34.035039 0.297452
2004-07-14 07:02:42 51°14.759 2°47.341 17.158685 4.410788 34.0393 0.297452
2004-07-14 07:02:48 51°14.755 2°47.306 17.158052 4.411105 34.043884 0.297452
2004-07-14 07:02:49 51°14.754 2°47.3 17.156746 4.411526 34.048144 0.331161
2004-07-14 07:02:56 51°14.75 2°47.259 17.15683 4.411632 34.05029 0.331161
2004-07-14 07:03:02 51°14.746 2°47.224 17.15683 4.411632 34.05029 0.331161
2004-07-14 07:03:06 51°14.744 2°47.2 17.157336 4.411526 34.049379 0.297452
2004-07-14 07:03:12 51°14.74 2°47.165 17.152573 4.411737 34.052436 0.297452
2004-07-14 07:03:16 51°14.737 2°47.141 17.15683 4.412159 34.057932 0.297452
2004-07-14 07:03:22 51°14.733 2°47.106 17.150254 4.41237 34.059137 0.263742
2004-07-14 07:03:28 51°14.729 2°47.07 17.149369 4.412265 34.058226 0.297452
2004-07-14 07:03:30 51°14.728 2°47.058 17.149369 4.412265 34.058226 0.297452
2004-07-14 07:03:37 51°14.724 2°47.017 17.15017 4.412792 34.064016 0.297452
2004-07-14 07:03:42 51°14.721 2°46.987 17.148989 4.412476 34.062518 0.297452
2004-07-14 07:03:48 51°14.718 2°46.951 17.148821 4.412898 34.066781 0.297452
2004-07-14 07:03:53 51°14.715 2°46.922 17.150971 4.413109 34.069839 0.297452
2004-07-14 07:03:56 51°14.713 2°46.904 17.145406 4.413214 34.072603 0.263742
2004-07-14 07:04:02 51°14.709 2°46.868 17.145406 4.413214 34.072603 0.263742
2004-07-14 07:04:06 51°14.706 2°46.844 17.145111 4.413636 34.075013 0.297452
2004-07-14 07:04:12 51°14.703 2°46.808 17.142202 4.413531 34.074719 0.297452
2004-07-14 07:04:16 51°14.701 2°46.785 17.138323 4.414163 34.081423 0.263742
2004-07-14 07:04:22 51°14.697 2°46.749 17.140473 4.414585 34.085687 0.263742
2004-07-14 07:04:26 51°14.695 2°46.725 17.137058 4.414585 34.087541 0.297452
2004-07-14 07:04:33 51°14.69 2°46.683 17.137058 4.414585 34.087541 0.297452
2004-07-14 07:04:37 51°14.688 2°46.66 17.136721 4.415007 34.09366 0.297452
2004-07-14 07:04:42 51°14.685 2°46.63 17.1371 4.414902 34.092749 0.263742
2004-07-14 07:04:48 51°14.681 2°46.595 17.134275 4.415429 34.099162 0.263742
2004-07-14 07:04:52 51°14.678 2°46.572 17.13398 4.416168 34.106162 0.331161
2004-07-14 07:04:56 51°14.676 2°46.548 17.140262 4.416379 34.108604 0.263742
2004-07-14 07:05:02 51°14.673 2°46.513 17.140262 4.416379 34.108604 0.263742
2004-07-14 07:05:08 51°14.669 2°46.477 17.134275 4.416906 34.1144 0.297452
2004-07-14 07:05:12 51°14.666 2°46.454 17.132336 4.417328 34.118046 0.263742
2004-07-14 07:05:17 51°14.663 2°46.425 17.132546 4.417855 34.124462 0.297452
2004-07-14 07:05:22 51°14.659 2°46.395 17.132715 4.418277 34.128109 0.297452
2004-07-14 07:05:27 51°14.656 2°46.366 17.130565 4.418383 34.12964 0.297452
2004-07-14 07:05:33 51°14.653 2°46.331 17.130565 4.418383 34.12964 0.297452
2004-07-14 07:05:37 51°14.65 2°46.308 17.133769 4.419121 34.137262 0.263742
2004-07-14 07:05:41 51°14.648 2°46.285 17.131745 4.419437 34.139997 0.297452
2004-07-14 07:05:48 51°14.643 2°46.245 17.131281 4.419754 34.143353 0.263742
2004-07-14 07:05:52 51°14.641 2°46.222 17.132631 4.419965 34.146415 0.297452
2004-07-14 07:05:57 51°14.638 2°46.193 17.131914 4.420598 34.151887 0.263742
2004-07-14 07:06:02 51°14.635 2°46.164 17.131914 4.420598 34.151887 0.263742
2004-07-14 07:06:08 51°14.631 2°46.13 17.128836 4.420914 34.154003 0.263742
2004-07-14 07:06:12 51°14.629 2°46.107 17.12854 4.420808 34.152472 0.263742
2004-07-14 07:06:17 51°14.626 2°46.078 17.129046 4.421441 34.159183 0.230033
2004-07-14 07:06:21 51°14.623 2°46.055 17.129595 4.421336 34.157651 0.263742
2004-07-14 07:06:28 51°14.619 2°46.015 17.129131 4.422074 34.165895 0.263742
2004-07-14 07:06:32 51°14.617 2°45.992 17.129131 4.422074 34.165895 0.263742
2004-07-14 07:06:36 51°14.614 2°45.969 17.12833 4.421863 34.164071 0.263742
2004-07-14 07:06:41 51°14.611 2°45.94 17.127866 4.422285 34.167719 0.297452
2004-07-14 07:06:46 51°14.608 2°45.911 17.129721 4.422602 34.171696 0.297452
2004-07-14 07:06:52 51°14.604 2°45.877 17.129046 4.422496 34.170163 0.263742
2004-07-14 07:06:56 51°14.602 2°45.854 17.127866 4.423129 34.175636 0.263742
2004-07-14 07:07:01 51°14.599 2°45.825 17.127866 4.423129 34.175636 0.263742
2004-07-14 07:07:08 51°14.595 2°45.785 17.130986 4.422918 34.174432 0.297452
2004-07-14 07:07:12 51°14.593 2°45.762 17.129131 4.423129 34.176877 0.263742
2004-07-14 07:07:16 51°14.59 2°45.739 17.12892 4.423445 34.178993 0.263742
2004-07-14 07:07:21 51°14.587 2°45.71 17.130101 4.423762 34.181109 0.263742
2004-07-14 07:07:28 51°14.583 2°45.67 17.128625 4.424078 34.183845 0.263742
2004-07-14 07:07:32 51°14.58 2°45.648 17.128625 4.424078 34.183845 0.263742
2004-07-14 07:07:36 51°14.578 2°45.625 17.13145 4.424289 34.184429 0.263742
2004-07-14 07:07:38 51°14.576 2°45.613 17.131071 4.424289 34.18567 0.263742
2004-07-14 07:07:45 51°14.572 2°45.572 17.128456 4.424395 34.185961 0.263742
2004-07-14 07:07:52 51°14.568 2°45.531 17.125251 4.424817 34.19023 0.263742
2004-07-14 07:07:56 51°14.566 2°45.508 17.124872 4.424922 34.190522 0.263742
2004-07-14 07:08:01 51°14.563 2°45.479 17.124872 4.424922 34.190522 0.263742
2004-07-14 07:08:08 51°14.559 2°45.438 17.123311 4.425238 34.193879 0.263742
2004-07-14 07:08:12 51°14.557 2°45.415 17.12542 4.425133 34.193587 0.263742
2004-07-14 07:08:17 51°14.554 2°45.386 17.12348 4.425555 34.198478 0.263742
2004-07-14 07:08:21 51°14.552 2°45.363 17.122637 4.425766 34.200923 0.263742
2004-07-14 07:08:26 51°14.548 2°45.333 17.126221 4.425977 34.203368 0.263742
2004-07-14 07:08:32 51°14.545 2°45.297 17.126221 4.425977 34.203368 0.263742
2004-07-14 07:08:36 51°14.543 2°45.274 17.12601 4.426293 34.205484 0.230033
2004-07-14 07:08:41 51°14.54 2°45.244 17.121287 4.426188 34.204572 0.297452
2004-07-14 07:08:48 51°14.536 2°45.203 17.119727 4.426399 34.208259 0.263742
2004-07-14 07:08:52 51°14.533 2°45.18 17.12019 4.42661 34.210705 0.230033
2004-07-14 07:08:56 51°14.531 2°45.156 17.120992 4.426821 34.211287 0.230033
2004-07-14 07:09:01 51°14.528 2°45.126 17.120992 4.426821 34.211287 0.230033
2004-07-14 07:09:06 51°14.525 2°45.097 17.122341 4.427032 34.213112 0.230033
2004-07-14 07:09:12 51°14.521 2°45.061 17.1196 4.426926 34.214684 0.230033
2004-07-14 07:09:16 51°14.519 2°45.038 17.119516 4.427243 34.218042 0.230033
2004-07-14 07:09:21 51°14.516 2°45.008 17.116606 4.427243 34.218042 0.230033
2004-07-14 07:09:28 51°14.512 2°44.967 17.117407 4.427454 34.220488 0.263742
2004-07-14 07:09:29 51°14.511 2°44.961 17.117407 4.427454 34.220488 0.263742
2004-07-14 07:09:36 51°14.507 2°44.92 17.112557 4.427348 34.219576 0.196324
2004-07-14 07:09:41 51°14.503 2°44.89 17.115931 4.427454 34.220488 0.196324
2004-07-14 07:09:46 51°14.5 2°44.861 17.114075 4.427559 34.221401 0.196324
2004-07-14 07:09:52 51°14.496 2°44.826 17.11146 4.428192 34.228118 0.196324
2004-07-14 07:09:56 51°14.494 2°44.802 17.112135 4.428086 34.228448 0.196324
2004-07-14 07:10:01 51°14.491 2°44.773 17.112135 4.428086 34.228448 0.196324
2004-07-14 07:10:08 51°14.487 2°44.731 17.111544 4.428614 34.234876 0.196324
2004-07-14 07:10:12 51°14.484 2°44.708 17.111882 4.428614 34.234876 0.162614
2004-07-14 07:10:17 51°14.481 2°44.679 17.111165 4.428825 34.237944 0.162614
2004-07-14 07:10:21 51°14.478 2°44.655 17.110996 4.429141 34.241926 0.196324
2004-07-14 07:10:28 51°14.475 2°44.614 17.108845 4.429247 34.24346 0.128905
2004-07-14 07:10:32 51°14.472 2°44.59 17.108845 4.429247 34.24346 0.128905
2004-07-14 07:10:36 51°14.47 2°44.567 17.10779 4.429774 34.248024 0.162614
2004-07-14 07:10:41 51°14.467 2°44.538 17.10585 4.429669 34.247111 0.128905
2004-07-14 07:10:46 51°14.463 2°44.508 17.10585 4.430091 34.25014 0.128905
2004-07-14 07:10:52 51°14.46 2°44.473 17.107706 4.430196 34.252919 0.095195
2004-07-14 07:10:56 51°14.457 2°44.45 17.102348 4.430723 34.257483 0.095195
2004-07-14 07:11:01 51°14.454 2°44.42 17.102348 4.430723 34.257483 0.095195
2004-07-14 07:11:08 51°14.45 2°44.379 17.102433 4.430934 34.260553 0.095195
2004-07-14 07:11:12 51°14.448 2°44.355 17.101378 4.430829 34.260262 0.095195
2004-07-14 07:11:16 51°14.445 2°44.331 17.101842 4.430829 34.261506 0.061486
2004-07-14 07:11:21 51°14.442 2°44.302 17.097497 4.431356 34.266693 0.061486
2004-07-14 07:11:26 51°14.439 2°44.272 17.101167 4.431251 34.267647 0.027777
2004-07-14 07:11:32 51°14.435 2°44.237 17.101167 4.431251 34.267647 0.027777
2004-07-14 07:11:36 51°14.433 2°44.213 17.100113 4.431356 34.26856 0.061486
2004-07-14 07:11:41 51°14.43 2°44.184 17.096653 4.431778 34.273457 0.061486
2004-07-14 07:11:48 51°14.425 2°44.142 17.098088 4.431989 34.275283 -0.005933
2004-07-14 07:11:52 51°14.423 2°44.119 17.096316 4.432095 34.277442 0.027777
2004-07-14 07:11:56 51°14.42 2°44.095 17.096822 4.431567 34.272876 0.027777
2004-07-14 07:12:01 51°14.417 2°44.066 17.096822 4.431567 34.272876 0.027777
2004-07-14 07:12:06 51°14.414 2°44.036 17.100113 4.431989 34.275906 -0.005933
2004-07-14 07:12:12 51°14.411 2°44.001 17.097497 4.432306 34.280513 0.027777
2004-07-14 07:12:16 51°14.408 2°43.977 17.094628 4.432411 34.282672 -0.005933
2004-07-14 07:12:21 51°14.405 2°43.947 17.094628 4.432517 34.283585 -0.005933
2004-07-14 07:12:28 51°14.401 2°43.906 17.097413 4.426505 34.23154 -0.005933
2004-07-14 07:12:29 51°14.4 2°43.9 17.097413 4.426505 34.23154 -0.005933
2004-07-14 07:12:36 51°14.396 2°43.859 17.096189 4.433255 34.289977 -0.039642
2004-07-14 07:12:41 51°14.393 2°43.829 17.094417 4.433571 34.292717 -0.073352
2004-07-14 07:12:46 51°14.39 2°43.799 17.096316 4.433677 34.294876 -0.005933
2004-07-14 07:12:52 51°14.387 2°43.764 17.090958 4.433466 34.293672 -0.039642
2004-07-14 07:12:56 51°14.386 2°43.74 17.089818 4.433993 34.297616 -0.039642
2004-07-14 07:13:01 51°14.384 2°43.71 17.089818 4.433993 34.297616 -0.039642
2004-07-14 07:13:08 51°14.38 2°43.668 17.090114 4.434626 34.302472 -0.005933
2004-07-14 07:13:12 51°14.379 2°43.644 17.091422 4.434837 34.304922 -0.073352
2004-07-14 07:13:17 51°14.376 2°43.615 17.090282 4.435048 34.306749 -0.073352
2004-07-14 07:13:21 51°14.375 2°43.591 17.09273 4.435681 34.313475 -0.107061
2004-07-14 07:13:28 51°14.372 2°43.549 17.091 4.435681 34.314722 -0.107061
2004-07-14 07:13:32 51°14.37 2°43.526 17.091 4.435681 34.314722 -0.107061
2004-07-14 07:13:36 51°14.369 2°43.502 17.092097 4.436103 34.318999 -0.107061
2004-07-14 07:13:41 51°14.366 2°43.472 17.088384 4.436103 34.320246 -0.17448
2004-07-14 07:13:46 51°14.365 2°43.442 17.089987 4.435786 34.317506 -0.14077
2004-07-14 07:13:52 51°14.363 2°43.406 17.089185 4.436208 34.32116 -0.17448
2004-07-14 07:13:56 51°14.362 2°43.382 17.087498 4.436419 34.322987 -0.14077
2004-07-14 07:14:01 51°14.36 2°43.352 17.087498 4.436419 34.322987 -0.14077
2004-07-14 07:14:08 51°14.358 2°43.311 17.090114 4.437158 34.328757 -0.17448
2004-07-14 07:14:12 51°14.357 2°43.287 17.089354 4.437791 34.335486 -0.208189
2004-07-14 07:14:16 51°14.356 2°43.263 17.09332 4.438423 34.341591 -0.208189
2004-07-14 07:14:21 51°14.355 2°43.233 17.093616 4.438529 34.342505 -0.275608
2004-07-14 07:14:28 51°14.353 2°43.191 17.093531 4.439162 34.347986 -0.241899
2004-07-14 07:14:32 51°14.351 2°43.167 17.093531 4.439162 34.347986 -0.241899
2004-07-14 07:14:36 51°14.351 2°43.143 17.093616 4.439795 34.353468 -0.275608
2004-07-14 07:14:41 51°14.349 2°43.113 17.097708 4.440427 34.35895 -0.275608
2004-07-14 07:14:48 51°14.347 2°43.071 17.098003 4.440638 34.358904 -0.343027
2004-07-14 07:14:52 51°14.345 2°43.047 17.093911 4.44106 34.36131 -0.343027
2004-07-14 07:14:56 51°14.345 2°43.023 17.096822 4.441904 34.368619 -0.309317
2004-07-14 07:15:01 51°14.343 2°42.993 17.096822 4.441904 34.368619 -0.309317
2004-07-14 07:15:06 51°14.342 2°42.963 17.098088 4.44201 34.369533 -0.376736
2004-07-14 07:15:12 51°14.34 2°42.928 17.100324 4.44222 34.370111 -0.343027
2004-07-14 07:15:21 51°14.337 2°42.874 17.097033 4.443064 34.37742 -0.376736
2004-07-14 07:15:28 51°14.336 2°42.833 17.099058 4.443486 34.38045 -0.343027
2004-07-14 07:15:32 51°14.334 2°42.809 17.099058 4.443486 34.38045 -0.343027
2004-07-14 07:15:36 51°14.333 2°42.785 17.097202 4.443592 34.380115 -0.376736
2004-07-14 07:15:41 51°14.332 2°42.755 17.098678 4.443803 34.381942 -0.410446
2004-07-14 07:15:48 51°14.33 2°42.714 17.095134 4.444224 34.385596 -0.376736
2004-07-14 07:15:52 51°14.329 2°42.69 17.095641 4.444224 34.384972 -0.376736
2004-07-14 07:15:56 51°14.328 2°42.666 17.097581 4.444435 34.386799 -0.376736
2004-07-14 07:16:01 51°14.326 2°42.637 17.097581 4.444435 34.386799 -0.376736
2004-07-14 07:16:06 51°14.325 2°42.607 17.0991 4.44433 34.385885 -0.343027
2004-07-14 07:16:12 51°14.324 2°42.572 17.100155 4.44433 34.385885 -0.343027
2004-07-14 07:16:16 51°14.323 2°42.548 17.098003 4.444541 34.388337 -0.343027
2004-07-14 07:16:21 51°14.321 2°42.519 17.096653 4.44433 34.387759 -0.343027
2004-07-14 07:16:28 51°14.319 2°42.477 17.097961 4.444014 34.383144 -0.309317
2004-07-14 07:16:30 51°14.319 2°42.465 17.097961 4.444014 34.383144 -0.309317
2004-07-14 07:16:36 51°14.317 2°42.43 17.099058 4.443908 34.382231 -0.343027
2004-07-14 07:16:41 51°14.316 2°42.4 17.100197 4.443697 34.380404 -0.275608
2004-07-14 07:16:48 51°14.315 2°42.358 17.098974 4.443381 34.377663 -0.275608
2004-07-14 07:16:52 51°14.313 2°42.335 17.102264 4.442959 34.374009 -0.275608
2004-07-14 07:16:56 51°14.313 2°42.311 17.102728 4.442853 34.372471 -0.309317
2004-07-14 07:17:01 51°14.311 2°42.282 17.102728 4.442853 34.372471 -0.309317
2004-07-14 07:17:06 51°14.31 2°42.252 17.100872 4.442537 34.36973 -0.275608
2004-07-14 07:17:12 51°14.309 2°42.216 17.10412 4.442326 34.367279 -0.241899
2004-07-14 07:17:16 51°14.309 2°42.193 17.102433 4.442326 34.367279 -0.275608
2004-07-14 07:17:21 51°14.307 2°42.163 17.103108 4.441693 34.361174 -0.241899
2004-07-14 07:17:28 51°14.306 2°42.122 17.1045 4.441693 34.360549 -0.241899
2004-07-14 07:17:32 51°14.305 2°42.098 17.1045 4.441693 34.360549 -0.241899
2004-07-14 07:17:36 51°14.304 2°42.075 17.103614 4.441693 34.360549 -0.241899
2004-07-14 07:17:41 51°14.302 2°42.045 17.097666 4.441693 34.358677 -0.275608
2004-07-14 07:17:48 51°14.301 2°42.005 17.100324 4.441904 34.35988 -0.241899
2004-07-14 07:17:50 51°14.3 2°41.993 17.093236 4.441587 34.358388 -0.208189
2004-07-14 07:17:56 51°14.298 2°41.958 17.092645 4.441588 34.359012 -0.241899
2004-07-14 07:18:01 51°14.297 2°41.928 17.092645 4.441588 34.359012 -0.241899
2004-07-14 07:18:08 51°14.295 2°41.887 17.09505 4.441377 34.357185 -0.241899
2004-07-14 07:18:12 51°14.294 2°41.864 17.094628 4.441588 34.359636 -0.241899
2004-07-14 07:18:16 51°14.293 2°41.841 17.091 4.441799 34.36396 -0.241899
2004-07-14 07:18:21 51°14.291 2°41.812 17.086358 4.441482 34.363092 -0.241899
2004-07-14 07:18:26 51°14.29 2°41.783 17.084502 4.441588 34.36463 -0.208189
2004-07-14 07:18:32 51°14.289 2°41.748 17.084502 4.441588 34.36463 -0.208189
2004-07-14 07:18:36 51°14.288 2°41.724 17.083953 4.441588 34.365878 -0.275608
2004-07-14 07:18:41 51°14.287 2°41.695 17.08332 4.441482 34.364965 -0.241899
2004-07-14 07:18:48 51°14.286 2°41.655 17.077792 4.441588 34.367751 -0.275608
2004-07-14 07:18:52 51°14.284 2°41.631 17.08235 4.441588 34.370249 -0.275608
2004-07-14 07:18:56 51°14.283 2°41.608 17.071884 4.441377 34.370296 -0.275608
2004-07-14 07:19:01 51°14.282 2°41.579 17.071884 4.441377 34.370296 -0.275608
2004-07-14 07:19:08 51°14.28 2°41.538 17.074332 4.441588 34.372748 -0.309317
2004-07-14 07:19:12 51°14.279 2°41.515 17.069056 4.441482 34.373083 -0.275608
2004-07-14 07:19:16 51°14.279 2°41.492 17.065342 4.441482 34.374333 -0.309317
2004-07-14 07:19:21 51°14.277 2°41.463 17.06454 4.441588 34.377746 -0.309317
2004-07-14 07:19:28 51°14.276 2°41.422 17.055212 4.441588 34.38087 -0.309317
2004-07-14 07:19:32 51°14.274 2°41.399 17.055212 4.441588 34.38087 -0.309317
2004-07-14 07:19:37 51°14.274 2°41.37 17.056858 4.441482 34.381831 -0.343027
2004-07-14 07:19:41 51°14.272 2°41.347 17.054536 4.441482 34.383706 -0.343027
2004-07-14 07:19:48 51°14.271 2°41.306 17.049006 4.441272 34.384378 -0.343027
2004-07-14 07:19:52 51°14.27 2°41.283 17.044108 4.441377 34.387793 -0.343027
2004-07-14 07:19:56 51°14.269 2°41.259 17.043939 4.441061 34.388177 -0.343027
2004-07-14 07:20:01 51°14.268 2°41.23 17.043939 4.441061 34.388177 -0.343027
2004-07-14 07:20:05 51°14.267 2°41.207 17.041195 4.441166 34.390968 -0.343027
2004-07-14 07:20:12 51°14.265 2°41.166 17.035453 4.441166 34.39347 -0.309317
2004-07-14 07:20:16 51°14.264 2°41.143 17.03009 4.440639 34.391399 -0.309317
2004-07-14 07:20:21 51°14.263 2°41.113 17.028949 4.44085 34.396357 -0.376736
2004-07-14 07:20:24 51°14.262 2°41.096 17.024853 4.440323 34.394287 -0.376736
2004-07-14 07:20:32 51°14.261 2°41.049 17.024853 4.440323 34.394287 -0.376736
2004-07-14 07:20:36 51°14.26 2°41.026 17.026204 4.440534 34.398619 -0.343027
2004-07-14 07:20:41 51°14.259 2°40.997 17.027176 4.439901 34.397512 -0.376736
2004-07-14 07:20:48 51°14.257 2°40.957 17.020334 4.439795 34.399727 -0.343027
2004-07-14 07:20:52 51°14.256 2°40.934 17.017842 4.439584 34.401027 -0.376736
2004-07-14 07:20:56 51°14.256 2°40.911 17.020165 4.439795 34.404736 -0.376736
2004-07-14 07:21:01 51°14.254 2°40.881 17.020165 4.439795 34.404736 -0.376736
2004-07-14 07:21:08 51°14.253 2°40.841 17.016575 4.439374 34.401702 -0.376736
2004-07-14 07:21:12 51°14.252 2°40.818 17.01045 4.439057 34.400836 -0.376736
2004-07-14 07:21:16 51°14.251 2°40.794 17.01176 4.438846 34.400258 -0.309317
2004-07-14 07:21:21 51°14.25 2°40.765 17.013914 4.438741 34.401848 -0.343027
2004-07-14 07:21:28 51°14.248 2°40.724 17.008169 4.438741 34.403101 -0.343027
2004-07-14 07:21:32 51°14.248 2°40.701 17.008169 4.438741 34.403101 -0.343027
2004-07-14 07:21:36 51°14.246 2°40.678 17.012773 4.438635 34.403438 -0.343027
2004-07-14 07:21:41 51°14.245 2°40.649 17.004494 4.438003 34.401079 -0.376736
2004-07-14 07:21:48 51°14.244 2°40.609 17.006986 4.438319 34.404451 -0.376736
2004-07-14 07:21:52 51°14.243 2°40.586 17.003607 4.438319 34.405078 -0.343027
2004-07-14 07:21:57 51°14.242 2°40.557 16.999804 4.438003 34.404211 -0.309317
2004-07-14 07:22:01 51°14.241 2°40.534 16.999804 4.438003 34.404211 -0.309317
2004-07-14 07:22:08 51°14.239 2°40.494 17.0001 4.437792 34.403634 -0.343027
2004-07-14 07:22:12 51°14.238 2°40.471 17.002424 4.438214 34.408549 -0.309317
2004-07-14 07:22:16 51°14.237 2°40.447 16.999635 4.438003 34.407971 -0.309317
2004-07-14 07:22:21 51°14.237 2°40.418 16.999297 4.437475 34.404647 -0.309317
2004-07-14 07:22:28 51°14.235 2°40.378 16.992918 4.437792 34.409274 -0.343027
2004-07-14 07:22:32 51°14.234 2°40.355 16.992918 4.437792 34.409274 -0.343027
2004-07-14 07:22:36 51°14.233 2°40.332 16.990721 4.437686 34.409612 -0.275608
2004-07-14 07:22:41 51°14.232 2°40.303 16.99296 4.43737 34.406865 -0.275608
2004-07-14 07:22:46 51°14.231 2°40.274 16.989199 4.437159 34.405034 -0.343027
2004-07-14 07:22:52 51°14.23 2°40.24 16.987425 4.43737 34.408746 -0.275608
2004-07-14 07:22:56 51°14.229 2°40.217 16.986072 4.437265 34.410964 -0.275608
2004-07-14 07:23:01 51°14.227 2°40.188 16.986072 4.437265 34.410964 -0.275608
2004-07-14 07:23:08 51°14.226 2°40.148 16.981804 4.437054 34.410387 -0.275608
2004-07-14 07:23:12 51°14.225 2°40.125 16.982269 4.437054 34.411641 -0.241899
2004-07-14 07:23:16 51°14.224 2°40.103 16.981889 4.436948 34.411979 -0.275608
2004-07-14 07:23:21 51°14.223 2°40.074 16.97817 4.436632 34.409859 -0.275608
2004-07-14 07:23:26 51°14.222 2°40.045 16.974578 4.436632 34.412367 -0.241899
2004-07-14 07:23:32 51°14.221 2°40.011 16.974578 4.436632 34.412367 -0.241899
2004-07-14 07:23:36 51°14.22 2°39.988 16.970732 4.436315 34.410874 -0.208189
2004-07-14 07:23:41 51°14.22 2°39.96 16.967519 4.436526 34.413333 -0.208189
2004-07-14 07:23:46 51°14.219 2°39.931 16.967646 4.435894 34.410346 -0.241899
2004-07-14 07:23:52 51°14.217 2°39.897 16.966632 4.436104 34.413432 -0.208189
2004-07-14 07:23:56 51°14.216 2°39.873 16.965491 4.436105 34.416569 -0.17448
2004-07-14 07:24:01 51°14.215 2°39.845 16.965491 4.436105 34.416569 -0.17448
2004-07-14 07:24:08 51°14.213 2°39.805 16.962785 4.435683 34.414787 -0.17448
2004-07-14 07:24:12 51°14.212 2°39.782 16.958135 4.435472 34.415464 -0.17448
2004-07-14 07:24:17 51°14.211 2°39.753 16.957755 4.435472 34.417974 -0.208189
2004-07-14 07:24:21 51°14.21 2°39.73 16.95767 4.435472 34.41923 -0.17448
2004-07-14 07:24:28 51°14.209 2°39.69 16.954626 4.435577 34.420774 -0.14077
2004-07-14 07:24:32 51°14.208 2°39.667 16.954626 4.435577 34.420774 -0.14077
2004-07-14 07:24:36 51°14.207 2°39.644 16.948961 4.435261 34.420535 -0.17448
2004-07-14 07:24:41 51°14.206 2°39.615 16.948454 4.435261 34.422419 -0.241899
2004-07-14 07:24:48 51°14.204 2°39.576 16.951202 4.435156 34.422758 -0.17448
2004-07-14 07:24:52 51°14.203 2°39.552 16.94579 4.43505 34.423097 -0.208189
2004-07-14 07:24:57 51°14.202 2°39.524 16.944353 4.434945 34.424064 -0.17448
2004-07-14 07:25:01 51°14.201 2°39.501 16.944353 4.434945 34.424064 -0.17448
2004-07-14 07:25:08 51°14.199 2°39.461 16.944522 4.434945 34.426576 -0.107061
2004-07-14 07:25:12 51°14.198 2°39.437 16.940759 4.434628 34.425082 -0.17448
2004-07-14 07:25:17 51°14.197 2°39.409 16.93856 4.434734 34.426627 -0.14077
2004-07-14 07:25:21 51°14.196 2°39.386 16.936995 4.434628 34.426338 -0.17448
2004-07-14 07:25:28 51°14.194 2°39.346 16.934162 4.434628 34.428851 -0.17448
2004-07-14 07:25:33 51°14.193 2°39.316 16.934162 4.434628 34.428851 -0.17448
2004-07-14 07:25:36 51°14.192 2°39.299 16.938095 4.434628 34.431364 -0.17448
2004-07-14 07:25:41 51°14.191 2°39.27 16.932428 4.434839 34.433826 -0.14077
2004-07-14 07:25:45 51°14.19 2°39.247 16.936742 4.434206 34.43021 -0.208189
2004-07-14 07:25:52 51°14.188 2°39.207 16.935473 4.434312 34.433012 -0.14077
2004-07-14 07:25:57 51°14.187 2°39.178 16.936911 4.434207 34.435237 -0.14077
2004-07-14 07:26:02 51°14.186 2°39.149 16.936911 4.434207 34.435237 -0.14077
2004-07-14 07:26:08 51°14.184 2°39.115 16.939744 4.434207 34.43398 -0.14077
2004-07-14 07:26:12 51°14.183 2°39.092 16.945156 4.434207 34.434608 -0.17448
2004-07-14 07:26:16 51°14.182 2°39.069 16.949173 4.433468 34.427561 -0.241899
2004-07-14 07:26:21 51°14.179 2°39.04 16.954331 4.43389 34.431229 -0.14077
2004-07-14 07:26:28 51°14.175 2°39 16.958516 4.43389 34.430601 -0.208189
2004-07-14 07:26:29 51°14.174 2°38.995 16.958516 4.43389 34.430601 -0.208189
2004-07-14 07:26:36 51°14.169 2°38.955 16.96139 4.433574 34.425337 -0.241899
2004-07-14 07:26:42 51°14.164 2°38.921 16.965068 4.433363 34.421619 -0.241899
2004-07-14 07:26:48 51°14.159 2°38.886 16.969379 4.433363 34.417851 -0.241899
2004-07-14 07:26:52 51°14.155 2°38.864 16.971535 4.433784 34.41775 -0.275608
2004-07-14 07:27:01 51°14.148 2°38.813 16.977198 4.433573 34.412777 -0.275608
2004-07-14 07:27:06 51°14.143 2°38.785 16.978466 4.433679 34.411183 -0.241899
2004-07-14 07:27:12 51°14.137 2°38.751 16.98341 4.433679 34.408045 -0.309317
2004-07-14 07:27:17 51°14.132 2°38.723 16.98134 4.433573 34.403364 -0.275608
2004-07-14 07:27:21 51°14.128 2°38.7 16.987382 4.433679 34.401144 -0.309317
2004-07-14 07:27:26 51°14.123 2°38.672 16.978846 4.43389 34.400468 -0.309317
2004-07-14 07:27:32 51°14.117 2°38.638 16.978846 4.43389 34.400468 -0.309317
2004-07-14 07:27:36 51°14.113 2°38.616 16.982058 4.433784 34.397043 -0.309317
2004-07-14 07:27:41 51°14.108 2°38.588 16.986157 4.43389 34.395451 -0.309317
2004-07-14 07:27:48 51°14.102 2°38.548 16.989918 4.434417 34.39815 -0.309317
2004-07-14 07:27:52 51°14.097 2°38.525 16.990552 4.434311 34.396607 -0.309317
2004-07-14 07:27:56 51°14.094 2°38.503 16.991904 4.434417 34.397523 -0.343027
2004-07-14 07:28:01 51°14.088 2°38.474 16.991904 4.434417 34.397523 -0.343027
2004-07-14 07:28:08 51°14.082 2°38.435 16.995749 4.434311 34.396607 -0.275608
2004-07-14 07:28:12 51°14.077 2°38.412 16.996002 4.433995 34.391979 -0.309317
2004-07-14 07:28:17 51°14.073 2°38.384 16.997185 4.434206 34.392557 -0.309317
2004-07-14 07:28:21 51°14.069 2°38.361 16.998453 4.434206 34.389423 -0.343027
2004-07-14 07:28:26 51°14.064 2°38.333 17.000692 4.433995 34.387592 -0.309317
2004-07-14 07:28:32 51°14.058 2°38.299 17.000692 4.433995 34.387592 -0.309317
2004-07-14 07:28:36 51°14.055 2°38.276 16.999128 4.433995 34.385712 -0.376736
2004-07-14 07:28:41 51°14.05 2°38.248 17.000607 4.433995 34.383832 -0.376736
2004-07-14 07:28:48 51°14.043 2°38.208 17.003607 4.434206 34.383158 -0.410446
2004-07-14 07:28:49 51°14.042 2°38.202 17.00479 4.434311 34.384073 -0.376736
2004-07-14 07:28:57 51°14.033 2°38.158 17.004283 4.433784 34.377617 -0.343027
2004-07-14 07:29:01 51°14.029 2°38.135 17.004283 4.433784 34.377617 -0.343027
2004-07-14 07:29:08 51°14.021 2°38.096 17.004747 4.434417 34.38311 -0.376736
2004-07-14 07:29:12 51°14.017 2°38.073 17.006141 4.433995 34.378195 -0.376736
2004-07-14 07:29:16 51°14.012 2°38.051 17.00838 4.434417 34.380604 -0.376736
2004-07-14 07:29:21 51°14.006 2°38.023 17.006226 4.434944 34.383929 -0.343027
2004-07-14 07:29:28 51°13.997 2°37.984 17.00555 4.434838 34.383014 -0.376736
2004-07-14 07:29:32 51°13.992 2°37.962 17.00555 4.434838 34.383014 -0.376736
2004-07-14 07:29:36 51°13.988 2°37.94 17.005761 4.434838 34.383014 -0.376736
2004-07-14 07:29:41 51°13.981 2°37.912 17.007493 4.435049 34.382966 -0.376736
2004-07-14 07:29:46 51°13.976 2°37.884 17.006902 4.435471 34.385374 -0.376736
2004-07-14 07:29:52 51°13.968 2°37.851 17.006015 4.435366 34.385085 -0.376736
2004-07-14 07:29:58 51°13.962 2°37.817 17.007282 4.435682 34.387832 -0.376736
2004-07-14 07:30:02 51°13.957 2°37.795 17.007282 4.435682 34.387832 -0.376736
2004-07-14 07:30:08 51°13.95 2°37.762 17.008972 4.435893 34.389662 -0.309317
2004-07-14 07:30:12 51°13.945 2°37.739 17.008845 4.436104 34.391493 -0.343027
2004-07-14 07:30:17 51°13.939 2°37.711 17.006817 4.436104 34.391493 -0.343027
2004-07-14 07:30:22 51°13.933 2°37.683 17.007578 4.436315 34.392698 -0.343027
2004-07-14 07:30:26 51°13.928 2°37.661 17.005634 4.436842 34.396648 -0.309317
2004-07-14 07:30:32 51°13.922 2°37.627 17.005634 4.436842 34.396648 -0.309317
2004-07-14 07:30:36 51°13.917 2°37.605 17.00762 4.436421 34.393613 -0.343027
2004-07-14 07:30:42 51°13.91 2°37.571 17.005254 4.436842 34.397275 -0.309317
2004-07-14 07:30:48 51°13.903 2°37.538 17.006226 4.436631 34.394817 -0.241899
2004-07-14 07:30:53 51°13.897 2°37.51 17.002551 4.436842 34.396648 -0.343027
2004-07-14 07:30:57 51°13.892 2°37.487 17.001368 4.437053 34.398479 -0.309317
2004-07-14 07:31:02 51°13.887 2°37.459 17.001368 4.437053 34.398479 -0.309317
2004-07-14 07:31:06 51°13.882 2°37.437 17.001663 4.436737 34.396359 -0.309317
2004-07-14 07:31:12 51°13.875 2°37.403 17.000692 4.437053 34.400358 -0.275608
2004-07-14 07:31:16 51°13.871 2°37.381 16.998284 4.437053 34.399732 -0.275608
2004-07-14 07:31:21 51°13.864 2°37.353 16.995411 4.436842 34.399154 -0.241899
2004-07-14 07:31:25 51°13.858 2°37.331 16.997185 4.437264 34.403443 -0.309317
2004-07-14 07:31:32 51°13.847 2°37.294 16.997185 4.437264 34.403443 -0.309317
2004-07-14 07:31:36 51°13.841 2°37.273 16.99727 4.43737 34.404985 -0.309317
2004-07-14 07:31:41 51°13.833 2°37.246 16.997439 4.436948 34.403203 -0.275608
2004-07-14 07:31:48 51°13.82 2°37.21 16.998622 4.43737 34.408746 -0.275608
2004-07-14 07:31:52 51°13.813 2°37.189 16.992749 4.437159 34.408168 -0.343027
2004-07-14 07:31:56 51°13.806 2°37.168 16.991354 4.437475 34.411542 -0.309317
2004-07-14 07:32:01 51°13.797 2°37.142 16.991354 4.437475 34.411542 -0.309317
2004-07-14 07:32:05 51°13.789 2°37.122 16.993847 4.437159 34.407541 -0.343027
2004-07-14 07:32:17 51°13.767 2°37.06 16.991988 4.437581 34.412458 -0.343027
2004-07-14 07:32:24 51°13.754 2°37.022 16.98958 4.43737 34.41188 -0.343027
2004-07-14 07:32:28 51°13.747 2°37.001 16.987678 4.437265 34.411591 -0.376736
2004-07-14 07:32:33 51°13.738 2°36.975 16.987425 4.437475 34.412796 -0.343027
2004-07-14 07:32:37 51°13.731 2°36.954 16.987425 4.437475 34.412796 -0.343027
2004-07-14 07:32:42 51°13.721 2°36.928 16.985692 4.43737 34.414388 -0.343027
2004-07-14 07:32:48 51°13.71 2°36.897 16.985143 4.437476 34.415304 -0.376736
2004-07-14 07:32:52 51°13.702 2°36.877 16.984551 4.437792 34.418051 -0.343027
2004-07-14 07:32:57 51°13.693 2°36.851 16.984129 4.437687 34.420272 -0.343027
2004-07-14 07:33:04 51°13.68 2°36.815 16.980325 4.438003 34.422392 -0.309317
2004-07-14 07:33:08 51°13.672 2°36.795 16.980325 4.438003 34.422392 -0.309317
2004-07-14 07:33:13 51°13.662 2°36.77 16.981213 4.437687 34.420899 -0.309317
2004-07-14 07:33:16 51°13.656 2°36.755 16.979015 4.438108 34.42519 -0.343027
2004-07-14 07:33:24 51°13.641 2°36.716 16.978381 4.437792 34.424324 -0.309317
2004-07-14 07:33:28 51°13.634 2°36.695 16.97555 4.437792 34.424324 -0.309317
2004-07-14 07:33:32 51°13.626 2°36.674 16.973394 4.437898 34.425867 -0.343027
2004-07-14 07:33:37 51°13.617 2°36.648 16.973394 4.437898 34.425867 -0.343027
2004-07-14 07:33:44 51°13.603 2°36.612 16.967815 4.438003 34.428666 -0.376736
2004-07-14 07:33:48 51°13.596 2°36.591 16.972211 4.437687 34.425918 -0.309317
2004-07-14 07:33:53 51°13.587 2°36.565 16.965237 4.43737 34.425052 -0.309317
2004-07-14 07:33:57 51°13.579 2°36.545 16.966674 4.437581 34.427512 -0.343027
2004-07-14 07:34:02 51°13.57 2°36.519 16.963969 4.437687 34.430938 -0.309317
2004-07-14 07:34:08 51°13.558 2°36.489 16.963969 4.437687 34.430938 -0.309317
2004-07-14 07:34:12 51°13.551 2°36.469 16.96566 4.437159 34.429496 -0.343027
2004-07-14 07:34:17 51°13.541 2°36.444 16.958473 4.437159 34.430124 -0.309317
2004-07-14 07:34:24 51°13.528 2°36.408 16.959319 4.434628 34.40939 -0.343027
2004-07-14 07:34:28 51°13.521 2°36.388 16.959277 4.437054 34.431719 -0.376736
2004-07-14 07:34:33 51°13.511 2°36.363 16.957248 4.436738 34.430225 -0.309317
2004-07-14 07:34:37 51°13.503 2°36.343 16.957248 4.436738 34.430225 -0.309317
2004-07-14 07:34:44 51°13.49 2°36.308 16.955218 4.436738 34.432109 -0.376736
2004-07-14 07:34:48 51°13.482 2°36.287 16.950991 4.436527 34.431532 -0.376736
2004-07-14 07:34:53 51°13.472 2°36.263 16.952766 4.436632 34.434332 -0.376736
2004-07-14 07:34:57 51°13.464 2°36.243 16.946129 4.43621 34.430667 -0.376736
2004-07-14 07:35:02 51°13.455 2°36.217 16.946213 4.436421 34.433755 -0.376736
2004-07-14 07:35:08 51°13.442 2°36.187 16.946213 4.436421 34.433755 -0.376736
2004-07-14 07:35:13 51°13.432 2°36.162 16.942408 4.436316 34.434723 -0.343027
2004-07-14 07:35:17 51°13.425 2°36.142 16.944057 4.43621 34.436319 -0.376736
2004-07-14 07:35:22 51°13.414 2°36.118 16.942408 4.436105 34.436659 -0.376736
2004-07-14 07:35:28 51°13.403 2°36.087 16.939659 4.435894 34.437338 -0.343027
2004-07-14 07:35:33 51°13.392 2°36.063 16.936826 4.435999 34.439512 -0.376736
2004-07-14 07:35:37 51°13.385 2°36.045 16.936826 4.435999 34.439512 -0.376736
2004-07-14 07:35:44 51°13.37 2°36.013 16.934796 4.436 34.442025 -0.343027
2004-07-14 07:35:48 51°13.362 2°35.993 16.933612 4.435894 34.44048 -0.343027
2004-07-14 07:35:53 51°13.352 2°35.967 16.933866 4.435789 34.44082 -0.376736
2004-07-14 07:35:57 51°13.345 2°35.947 16.93763 4.435683 34.441789 -0.410446
2004-07-14 07:36:04 51°13.331 2°35.912 16.932724 4.435789 34.44522 -0.410446
2004-07-14 07:36:08 51°13.323 2°35.892 16.932724 4.435789 34.44522 -0.410446
2004-07-14 07:36:13 51°13.313 2°35.868 16.935642 4.435789 34.445848 -0.376736
2004-07-14 07:36:17 51°13.305 2°35.847 16.931117 4.435789 34.446477 -0.410446
2004-07-14 07:36:21 51°13.297 2°35.827 16.931455 4.435472 34.444355 -0.343027
2004-07-14 07:36:28 51°13.284 2°35.793 16.928918 4.435789 34.446477 -0.343027
2004-07-14 07:36:32 51°13.276 2°35.772 16.929003 4.435683 34.447446 -0.376736
2004-07-14 07:36:37 51°13.266 2°35.747 16.929003 4.435683 34.447446 -0.376736
2004-07-14 07:36:44 51°13.252 2°35.712 16.927142 4.435683 34.448075 -0.343027
2004-07-14 07:36:48 51°13.245 2°35.692 16.926634 4.435789 34.449621 -0.343027
2004-07-14 07:36:52 51°13.237 2°35.672 16.927734 4.436105 34.452372 -0.376736
2004-07-14 07:36:56 51°13.229 2°35.652 16.92803 4.436 34.452712 -0.343027
2004-07-14 07:37:04 51°13.213 2°35.612 16.930652 4.436 34.453341 -0.376736
2004-07-14 07:37:08 51°13.205 2°35.592 16.930652 4.436 34.453341 -0.376736
2004-07-14 07:37:12 51°13.197 2°35.574 16.930863 4.436 34.454599 -0.376736
2004-07-14 07:37:17 51°13.186 2°35.55 16.927734 4.436 34.454599 -0.309317
2004-07-14 07:37:22 51°13.174 2°35.526 16.928411 4.436 34.455857 -0.309317
2004-07-14 07:37:28 51°13.161 2°35.498 16.930187 4.436316 34.456722 -0.343027
2004-07-14 07:37:34 51°13.147 2°35.472 16.928284 4.436211 34.456433 -0.309317
2004-07-14 07:37:37 51°13.14 2°35.458 16.928284 4.436211 34.456433 -0.309317
2004-07-14 07:37:44 51°13.124 2°35.426 16.929679 4.436316 34.457351 -0.309317
2004-07-14 07:37:48 51°13.115 2°35.407 16.933316 4.436105 34.456774 -0.275608
2004-07-14 07:37:54 51°13.1 2°35.382 16.935938 4.436211 34.457062 -0.275608
2004-07-14 07:37:58 51°13.091 2°35.364 16.929975 4.436527 34.459814 -0.241899
2004-07-14 07:38:04 51°13.076 2°35.338 16.928495 4.436527 34.459185 -0.241899
2004-07-14 07:38:08 51°13.066 2°35.321 16.928495 4.436527 34.459185 -0.241899
2004-07-14 07:38:12 51°13.056 2°35.304 16.932217 4.436949 34.461595 -0.241899
2004-07-14 07:38:16 51°13.046 2°35.286 16.933189 4.436738 34.458503 -0.241899
2004-07-14 07:38:24 51°13.026 2°35.253 16.933908 4.437054 34.462513 -0.208189
2004-07-14 07:38:28 51°13.016 2°35.235 16.926973 4.437265 34.463089 -0.241899
2004-07-14 07:38:32 51°13.006 2°35.217 16.929172 4.437476 34.465552 -0.208189
2004-07-14 07:38:37 51°12.993 2°35.196 16.929172 4.437476 34.465552 -0.208189
2004-07-14 07:38:44 51°12.976 2°35.166 16.927649 4.437371 34.464635 -0.208189
2004-07-14 07:38:48 51°12.965 2°35.15 16.930102 4.437687 34.466757 -0.208189
2004-07-14 07:38:53 51°12.952 2°35.129 16.930144 4.437793 34.468304 -0.208189
2004-07-14 07:38:57 51°12.942 2°35.111 16.930567 4.437898 34.46985 -0.14077
2004-07-14 07:39:04 51°12.924 2°35.083 16.926761 4.437898 34.470479 -0.107061
2004-07-14 07:39:09 51°12.911 2°35.062 16.926761 4.437898 34.470479 -0.107061
2004-07-14 07:39:14 51°12.898 2°35.041 16.926761 4.43832 34.474777 -0.17448
2004-07-14 07:39:17 51°12.89 2°35.028 16.927353 4.438109 34.472943 -0.107061
2004-07-14 07:39:24 51°12.872 2°34.999 16.926254 4.438109 34.472943 -0.107061
2004-07-14 07:39:28 51°12.862 2°34.983 16.92693 4.438109 34.471684 -0.14077
2004-07-14 07:39:34 51°12.846 2°34.958 16.925788 4.438215 34.473231 -0.107061
2004-07-14 07:39:37 51°12.838 2°34.946 16.925788 4.438215 34.473231 -0.107061
2004-07-14 07:39:44 51°12.82 2°34.916 16.928707 4.438109 34.474201 -0.073352
2004-07-14 07:39:48 51°12.81 2°34.899 16.926042 4.438426 34.476953 -0.107061
2004-07-14 07:39:53 51°12.798 2°34.879 16.930567 4.438004 34.473913 -0.107061
2004-07-14 07:39:57 51°12.787 2°34.863 16.928622 4.438109 34.474831 -0.073352
2004-07-14 07:40:04 51°12.769 2°34.833 16.930567 4.438637 34.479417 -0.073352
2004-07-14 07:40:08 51°12.759 2°34.817 16.930567 4.438637 34.479417 -0.073352
2004-07-14 07:40:13 51°12.746 2°34.796 16.932217 4.438215 34.475119 -0.107061
2004-07-14 07:40:17 51°12.735 2°34.78 16.93044 4.43832 34.475407 -0.073352
2004-07-14 07:40:24 51°12.717 2°34.751 16.929172 4.43832 34.474777 -0.073352
2004-07-14 07:40:28 51°12.707 2°34.734 16.929764 4.438531 34.475982 -0.073352
2004-07-14 07:40:34 51°12.691 2°34.709 16.933401 4.438531 34.475982 -0.107061
2004-07-14 07:40:37 51°12.683 2°34.697 16.933401 4.438531 34.475982 -0.107061
2004-07-14 07:40:44 51°12.666 2°34.668 16.933401 4.438637 34.4769 -0.073352
2004-07-14 07:40:48 51°12.655 2°34.652 16.933908 4.438531 34.475982 -0.039642
2004-07-14 07:40:52 51°12.645 2°34.635 16.933866 4.423343 34.343943 -0.073352
2004-07-14 07:40:57 51°12.632 2°34.614 16.932936 4.426823 34.372313 -0.073352
2004-07-14 07:41:04 51°12.614 2°34.585 16.931625 4.430726 34.404351 -0.073352
2004-07-14 07:41:08 51°12.603 2°34.569 16.931625 4.430726 34.404351 -0.073352
2004-07-14 07:41:13 51°12.59 2°34.548 16.932048 4.420073 34.311771 -0.073352
2004-07-14 07:41:16 51°12.582 2°34.535 16.93044 4.42946 34.393349 -0.039642
2004-07-14 07:41:24 51°12.562 2°34.502 16.929975 4.42619 34.364931 -0.073352
2004-07-14 07:41:28 51°12.552 2°34.486 16.926634 4.429882 34.398272 -0.107061
2004-07-14 07:41:32 51°12.541 2°34.469 16.925281 4.423765 34.345102 -0.107061
2004-07-14 07:41:37 51°12.528 2°34.448 16.925281 4.423765 34.345102 -0.107061
2004-07-14 07:41:44 51°12.51 2°34.419 16.926254 4.426929 34.372602 -0.073352
2004-07-14 07:41:48 51°12.5 2°34.402 16.927818 4.427245 34.37598 -0.073352
2004-07-14 07:41:53 51°12.487 2°34.382 16.93006 4.437582 34.467098 -0.073352
2004-07-14 07:41:57 51°12.477 2°34.365 16.927522 4.438426 34.475065 -0.073352
2004-07-14 07:42:04 51°12.459 2°34.336 16.928114 4.438531 34.476612 -0.073352
2004-07-14 07:42:08 51°12.449 2°34.319 16.928114 4.438531 34.476612 -0.073352
2004-07-14 07:42:12 51°12.439 2°34.302 16.925661 4.437793 34.47082 -0.107061
2004-07-14 07:42:17 51°12.426 2°34.282 16.928537 4.436949 34.462854 -0.073352
2004-07-14 07:42:22 51°12.413 2°34.261 16.929172 4.435683 34.451219 -0.073352
2004-07-14 07:42:28 51°12.398 2°34.236 16.927649 4.434312 34.438668 -0.073352
2004-07-14 07:42:32 51°12.388 2°34.219 16.926677 4.434523 34.44176 -0.107061
2004-07-14 07:42:37 51°12.375 2°34.199 16.926677 4.434523 34.44176 -0.107061
2004-07-14 07:42:44 51°12.357 2°34.17 16.924689 4.438848 34.479363 -0.107061
2004-07-14 07:42:47 51°12.349 2°34.157 16.92693 4.438637 34.477529 -0.107061
2004-07-14 07:42:53 51°12.334 2°34.132 16.924477 4.438531 34.476612 -0.107061
2004-07-14 07:42:58 51°12.321 2°34.112 16.921643 4.437371 34.466522 -0.107061
2004-07-14 07:43:04 51°12.306 2°34.087 16.922828 4.435894 34.454311 -0.14077
2004-07-14 07:43:08 51°12.296 2°34.071 16.922828 4.435894 34.454311 -0.14077
2004-07-14 07:43:13 51°12.283 2°34.05 16.921347 4.436738 34.462277 -0.107061
2004-07-14 07:43:16 51°12.276 2°34.038 16.920671 4.438426 34.477583 -0.073352
2004-07-14 07:43:23 51°12.257 2°34.009 16.916568 4.436422 34.460784 -0.107061
2004-07-14 07:43:28 51°12.245 2°33.988 16.920882 4.438426 34.478841 -0.107061
2004-07-14 07:43:33 51°12.232 2°33.967 16.919402 4.438426 34.48073 -0.14077
2004-07-14 07:43:38 51°12.219 2°33.947 16.919402 4.438426 34.48073 -0.14077
2004-07-14 07:43:44 51°12.204 2°33.921 16.91441 4.438215 34.478895 -0.107061
2004-07-14 07:43:47 51°12.196 2°33.909 16.915214 4.437793 34.477114 -0.107061
2004-07-14 07:43:53 51°12.181 2°33.884 16.912972 4.437687 34.478085 -0.107061
2004-07-14 07:43:57 51°12.171 2°33.868 16.914833 4.436633 34.467652 -0.107061
2004-07-14 07:44:04 51°12.153 2°33.838 16.912295 4.437055 34.471951 -0.107061
2004-07-14 07:44:08 51°12.142 2°33.822 16.912295 4.437055 34.471951 -0.107061
2004-07-14 07:44:11 51°12.135 2°33.809 16.910899 4.438004 34.482097 -0.14077
2004-07-14 07:44:17 51°12.119 2°33.785 16.908953 4.437582 34.479686 -0.073352
2004-07-14 07:44:23 51°12.104 2°33.76 16.90925 4.436105 34.466842 -0.073352
2004-07-14 07:44:28 51°12.091 2°33.739 16.909165 4.436738 34.472976 -0.14077
2004-07-14 07:44:32 51°12.082 2°33.723 16.909546 4.437371 34.47974 -0.073352
2004-07-14 07:44:37 51°12.069 2°33.703 16.909546 4.437371 34.47974 -0.073352
2004-07-14 07:44:44 51°12.051 2°33.674 16.906796 4.436316 34.470565 -0.107061
2004-07-14 07:44:48 51°12.041 2°33.657 16.906669 4.435789 34.467866 -0.107061
2004-07-14 07:44:53 51°12.028 2°33.636 16.906965 4.433996 34.452268 -0.073352
2004-07-14 07:44:57 51°12.018 2°33.62 16.905908 4.435262 34.463278 -0.14077
2004-07-14 07:45:03 51°12.005 2°33.598 16.904342 4.435894 34.468154 -0.107061
2004-07-14 07:45:08 51°11.994 2°33.582 16.904342 4.435894 34.468154 -0.107061
2004-07-14 07:45:12 51°11.988 2°33.569 16.905611 4.43716 34.480424 -0.073352
2004-07-14 07:45:17 51°11.979 2°33.555 16.908869 4.43484 34.461496 -0.14077
2004-07-14 07:45:23 51°11.97 2°33.538 16.903877 4.433996 34.455415 -0.14077
2004-07-14 07:45:27 51°11.964 2°33.528 16.902015 4.437266 34.483231 -0.14077
2004-07-14 07:45:32 51°11.958 2°33.516 16.902608 4.435051 34.464591 -0.14077
2004-07-14 07:45:37 51°11.953 2°33.504 16.902608 4.435051 34.464591 -0.14077
2004-07-14 07:45:43 51°11.947 2°33.49 16.900238 4.433258 34.449621 -0.17448
2004-07-14 07:45:48 51°11.943 2°33.48 16.897615 4.437477 34.485696 -0.107061
2004-07-14 07:45:53 51°11.94 2°33.47 16.898588 4.43716 34.484203 -0.17448
2004-07-14 07:45:58 51°11.937 2°33.46 16.898081 4.437266 34.485751 -0.17448
2004-07-14 07:46:03 51°11.934 2°33.452 16.900027 4.436738 34.481792 -0.17448
2004-07-14 07:46:08 51°11.931 2°33.444 16.900027 4.436738 34.481792 -0.17448
2004-07-14 07:46:12 51°11.929 2°33.438 16.89825 4.437055 34.485175 -0.14077
2004-07-14 07:46:17 51°11.927 2°33.431 16.898081 4.436949 34.485517 -0.17448
2004-07-14 07:46:23 51°11.925 2°33.422 16.898673 4.434523 34.465039 -0.14077
2004-07-14 07:46:28 51°11.923 2°33.416 16.895923 4.436211 34.480353 -0.14077
2004-07-14 07:46:33 51°11.921 2°33.411 16.898081 4.436844 34.48586 -0.17448
2004-07-14 07:46:37 51°11.92 2°33.407 16.898081 4.436844 34.48586 -0.17448
2004-07-14 07:46:41 51°11.918 2°33.403 16.898292 4.436633 34.485284 -0.208189
2004-07-14 07:46:47 51°11.916 2°33.397 16.896134 4.436738 34.486202 -0.208189
2004-07-14 07:46:52 51°11.915 2°33.393 16.895711 4.436422 34.484078 -0.208189
2004-07-14 07:46:57 51°11.913 2°33.39 16.896811 4.436528 34.484996 -0.17448
2004-07-14 07:47:03 51°11.911 2°33.386 16.897319 4.436844 34.48775 -0.208189
2004-07-14 07:47:08 51°11.909 2°33.383 16.897319 4.436844 34.48775 -0.208189
2004-07-14 07:47:13 51°11.908 2°33.381 16.894823 4.436844 34.48775 -0.208189
2004-07-14 07:47:17 51°11.906 2°33.38 16.897996 4.436633 34.486544 -0.14077
2004-07-14 07:47:23 51°11.904 2°33.377 16.899815 4.436422 34.484078 -0.14077
2004-07-14 07:47:27 51°11.903 2°33.377 16.902396 4.436738 34.487462 -0.14077
2004-07-14 07:47:33 51°11.901 2°33.375 16.9021 4.436211 34.482873 -0.14077
2004-07-14 07:47:38 51°11.899 2°33.374 16.9021 4.436211 34.482873 -0.14077
2004-07-14 07:47:43 51°11.898 2°33.374 16.905696 4.436211 34.484133 -0.17448
2004-07-14 07:47:47 51°11.896 2°33.374 16.904554 4.436528 34.485626 -0.14077
2004-07-14 07:47:53 51°11.895 2°33.374 16.9054 4.436633 34.485284 -0.14077
2004-07-14 07:47:57 51°11.893 2°33.374 16.90925 4.436844 34.48712 -0.17448
2004-07-14 07:48:03 51°11.892 2°33.375 16.906288 4.436844 34.4846 -0.14077
2004-07-14 07:48:08 51°11.891 2°33.377 16.906288 4.436844 34.4846 -0.14077
2004-07-14 07:48:11 51°11.89 2°33.377 16.905823 4.437055 34.485175 -0.17448
2004-07-14 07:48:17 51°11.889 2°33.379 16.910899 4.436844 34.48397 -0.17448
2004-07-14 07:48:23 51°11.888 2°33.381 16.904469 4.437055 34.485175 -0.14077
2004-07-14 07:48:28 51°11.887 2°33.383 16.904723 4.437371 34.485409 -0.17448
2004-07-14 07:48:33 51°11.886 2°33.385 16.904342 4.43716 34.483573 -0.17448
2004-07-14 07:48:37 51°11.886 2°33.387 16.904342 4.43716 34.483573 -0.17448
2004-07-14 07:48:43 51°11.885 2°33.389 16.907557 4.437266 34.483861 -0.14077
2004-07-14 07:48:48 51°11.884 2°33.391 16.906965 4.437582 34.485354 -0.17448
2004-07-14 07:48:52 51°11.884 2°33.393 16.905611 4.437793 34.48845 -0.107061
2004-07-14 07:48:57 51°11.883 2°33.396 16.904469 4.437477 34.486956 -0.107061
2004-07-14 07:49:03 51°11.882 2°33.398 16.905696 4.43716 34.484833 -0.14077
2004-07-14 07:49:07 51°11.882 2°33.401 16.905696 4.43716 34.484833 -0.14077
2004-07-14 07:49:13 51°11.882 2°33.403 16.901973 4.43716 34.484203 -0.14077
2004-07-14 07:49:17 51°11.882 2°33.406 16.903073 4.437371 34.485409 -0.107061
2004-07-14 07:49:24 51°11.881 2°33.409 16.905231 4.437688 34.489422 -0.14077
2004-07-14 07:49:28 51°11.881 2°33.411 16.902185 4.437371 34.485409 -0.039642
2004-07-14 07:49:33 51°11.881 2°33.414 16.904173 4.437477 34.488216 -0.073352
2004-07-14 07:49:37 51°11.88 2°33.416 16.904173 4.437477 34.488216 -0.073352
2004-07-14 07:49:44 51°11.88 2°33.42 16.903877 4.437477 34.488216 -0.107061
2004-07-14 07:49:48 51°11.88 2°33.422 16.902269 4.43716 34.485463 -0.073352
2004-07-14 07:49:53 51°11.88 2°33.425 16.903158 4.437477 34.488216 -0.073352
2004-07-14 07:49:57 51°11.88 2°33.427 16.903285 4.437371 34.487929 -0.107061
2004-07-14 07:50:04 51°11.879 2°33.431 16.899519 4.43716 34.486723 -0.039642
2004-07-14 07:50:08 51°11.879 2°33.433 16.899519 4.43716 34.486723 -0.039642
2004-07-14 07:50:12 51°11.879 2°33.435 16.903369 4.437688 34.490052 -0.073352
2004-07-14 07:50:16 51°11.879 2°33.437 16.904808 4.437371 34.487299 -0.073352
2004-07-14 07:50:24 51°11.878 2°33.442 16.901423 4.43716 34.486723 -0.073352
2004-07-14 07:50:28 51°11.878 2°33.444 16.901592 4.437371 34.489189 -0.073352
2004-07-14 07:50:33 51°11.877 2°33.447 16.901127 4.437371 34.489819 -0.073352
2004-07-14 07:50:37 51°11.876 2°33.45 16.901127 4.437371 34.489819 -0.073352
2004-07-14 07:50:44 51°11.875 2°33.454 16.900154 4.436738 34.484942 -0.039642
2004-07-14 07:50:48 51°11.874 2°33.457 16.900534 4.437055 34.487065 -0.039642
2004-07-14 07:50:53 51°11.873 2°33.46 16.89825 4.43716 34.488613 -0.039642
2004-07-14 07:50:56 51°11.871 2°33.462 16.8977 4.43716 34.489873 -0.073352
2004-07-14 07:51:04 51°11.869 2°33.466 16.90375 4.436844 34.48649 -0.039642
2004-07-14 07:51:08 51°11.867 2°33.468 16.90375 4.436844 34.48649 -0.039642
2004-07-14 07:51:13 51°11.865 2°33.471 16.899815 4.437055 34.488325 -0.073352
2004-07-14 07:51:17 51°11.863 2°33.473 16.902396 4.436844 34.48712 -0.039642
2004-07-14 07:51:23 51°11.86 2°33.476 16.900027 4.436949 34.487408 -0.039642
2004-07-14 07:51:28 51°11.858 2°33.478 16.898377 4.43716 34.489873 -0.039642
2004-07-14 07:51:32 51°11.856 2°33.479 16.898546 4.436738 34.485572 -0.039642
2004-07-14 07:51:37 51°11.854 2°33.481 16.898546 4.436738 34.485572 -0.039642
2004-07-14 07:51:44 51°11.85 2°33.483 16.899858 4.432203 34.446108 -0.039642
2004-07-14 07:51:48 51°11.848 2°33.484 16.898588 4.434734 34.468134 -0.039642
2004-07-14 07:51:53 51°11.845 2°33.486 16.898461 4.435684 34.476394 -0.039642
2004-07-14 07:51:57 51°11.843 2°33.486 16.895457 4.433258 34.455285 -0.073352
2004-07-14 07:52:03 51°11.84 2°33.487 16.897277 4.436738 34.486202 -0.039642
2004-07-14 07:52:08 51°11.837 2°33.487 16.897277 4.436738 34.486202 -0.039642
2004-07-14 07:52:12 51°11.835 2°33.488 16.897954 4.436949 34.486778 -0.073352
2004-07-14 07:52:17 51°11.832 2°33.487 16.895161 4.437055 34.488956 -0.073352
2004-07-14 07:52:24 51°11.828 2°33.486 16.89368 4.436844 34.48775 -0.073352
2004-07-14 07:52:28 51°11.825 2°33.486 16.892284 4.436738 34.487462 -0.073352
2004-07-14 07:52:33 51°11.822 2°33.485 16.892834 4.436844 34.48838 -0.073352
2004-07-14 07:52:38 51°11.819 2°33.484 16.892834 4.436844 34.48838 -0.073352
2004-07-14 07:52:42 51°11.816 2°33.483 16.893384 4.436844 34.48901 -0.107061
2004-07-14 07:52:48 51°11.812 2°33.482 16.891903 4.436739 34.488722 -0.039642
2004-07-14 07:52:52 51°11.809 2°33.481 16.892961 4.436422 34.487229 -0.107061
2004-07-14 07:52:56 51°11.806 2°33.48 16.893595 4.433363 34.46124 -0.107061
2004-07-14 07:53:03 51°11.801 2°33.477 16.89093 4.436422 34.48912 -0.073352
2004-07-14 07:53:08 51°11.798 2°33.476 16.89093 4.436422 34.48912 -0.073352
2004-07-14 07:53:11 51°11.796 2°33.475 16.891818 4.436528 34.490038 -0.073352
2004-07-14 07:53:15 51°11.793 2°33.474 16.889279 4.436422 34.48912 -0.107061
2004-07-14 07:53:23 51°11.787 2°33.471 16.889364 4.436211 34.487914 -0.107061
2004-07-14 07:53:27 51°11.784 2°33.469 16.889364 4.436528 34.490038 -0.107061
2004-07-14 07:53:32 51°11.78 2°33.466 16.889533 4.436317 34.488832 -0.14077
2004-07-14 07:53:37 51°11.777 2°33.464 16.889533 4.436317 34.488832 -0.14077
2004-07-14 07:53:42 51°11.773 2°33.461 16.889068 4.436106 34.487626 -0.073352
2004-07-14 07:53:48 51°11.769 2°33.458 16.887121 4.436422 34.491011 -0.107061
2004-07-14 07:53:54 51°11.764 2°33.454 16.886529 4.436422 34.491011 -0.107061
2004-07-14 07:53:58 51°11.762 2°33.451 16.886317 4.436317 34.490092 -0.107061
2004-07-14 07:54:03 51°11.758 2°33.448 16.888137 4.436 34.487969 -0.107061
2004-07-14 07:54:08 51°11.755 2°33.444 16.888137 4.436 34.487969 -0.107061
2004-07-14 07:54:12 51°11.752 2°33.441 16.885005 4.435789 34.486763 -0.14077
2004-07-14 07:54:17 51°11.749 2°33.436 16.883313 4.436211 34.490435 -0.14077
2004-07-14 07:54:23 51°11.745 2°33.431 16.885344 4.436422 34.493532 -0.107061
2004-07-14 07:54:27 51°11.742 2°33.428 16.883143 4.436211 34.492957 -0.107061
2004-07-14 07:54:33 51°11.739 2°33.422 16.884244 4.435895 34.489572 -0.14077
2004-07-14 07:54:35 51°11.737 2°33.42 16.884244 4.435895 34.489572 -0.14077